<?xml version='1.0' encoding='UTF-8'?><gpx version="1.1" creator="JPX - https://github.com/jenetics/jpx" xmlns="http://www.topografix.com/GPX/1/1"><trk><trkseg><trkpt lat="42.9009758" lon="12.2313347"><ele>429.0</ele><time>2026-04-19T07:46:25.808Z</time></trkpt><trkpt lat="42.9009121" lon="12.2313412"><ele>429.0</ele><time>2026-04-19T07:46:45.781Z</time></trkpt><trkpt lat="42.901028" lon="12.2314034"><ele>429.0</ele><time>2026-04-19T07:47:15.78Z</time></trkpt><trkpt lat="42.9011212" lon="12.2313936"><ele>429.0</ele><time>2026-04-19T07:47:16.778Z</time></trkpt><trkpt lat="42.9012192" lon="12.2313669"><ele>429.0</ele><time>2026-04-19T07:47:17.784Z</time></trkpt><trkpt lat="42.9013256" lon="12.2313103"><ele>429.0</ele><time>2026-04-19T07:47:18.778Z</time></trkpt><trkpt lat="42.9014413" lon="12.2312261"><ele>429.0</ele><time>2026-04-19T07:47:19.78Z</time></trkpt><trkpt lat="42.9015617" lon="12.2311314"><ele>429.0</ele><time>2026-04-19T07:47:20.781Z</time></trkpt><trkpt lat="42.9016667" lon="12.2310444"><ele>429.0</ele><time>2026-04-19T07:47:21.779Z</time></trkpt><trkpt lat="42.9017551" lon="12.2309579"><ele>430.79999999999995</ele><time>2026-04-19T07:47:22.78Z</time></trkpt><trkpt lat="42.9018358" lon="12.2308606"><ele>432.59999999999997</ele><time>2026-04-19T07:47:23.778Z</time></trkpt><trkpt lat="42.9018985" lon="12.2307693"><ele>434.4</ele><time>2026-04-19T07:47:24.778Z</time></trkpt><trkpt lat="42.9019676" lon="12.230694"><ele>436.2</ele><time>2026-04-19T07:47:25.781Z</time></trkpt><trkpt lat="42.9020416" lon="12.2306303"><ele>438.0</ele><time>2026-04-19T07:47:26.778Z</time></trkpt><trkpt lat="42.9021138" lon="12.2305692"><ele>440.3333333333333</ele><time>2026-04-19T07:47:27.779Z</time></trkpt><trkpt lat="42.9021866" lon="12.2305133"><ele>442.66666666666663</ele><time>2026-04-19T07:47:28.778Z</time></trkpt><trkpt lat="42.9022646" lon="12.2304584"><ele>445.0</ele><time>2026-04-19T07:47:29.779Z</time></trkpt><trkpt lat="42.9023443" lon="12.2304023"><ele>447.3333333333333</ele><time>2026-04-19T07:47:30.779Z</time></trkpt><trkpt lat="42.9024234" lon="12.2303447"><ele>449.66666666666663</ele><time>2026-04-19T07:47:31.781Z</time></trkpt><trkpt lat="42.9024889" lon="12.2303003"><ele>452.0</ele><time>2026-04-19T07:47:32.782Z</time></trkpt><trkpt lat="42.9025875" lon="12.2303394"><ele>452.49999999999994</ele><time>2026-04-19T07:47:34.779Z</time></trkpt><trkpt lat="42.9026267" lon="12.2304077"><ele>453.0</ele><time>2026-04-19T07:47:35.779Z</time></trkpt><trkpt lat="42.902673" lon="12.2304981"><ele>453.5</ele><time>2026-04-19T07:47:36.779Z</time></trkpt><trkpt lat="42.9027112" lon="12.2306366"><ele>454.0</ele><time>2026-04-19T07:47:37.78Z</time></trkpt><trkpt lat="42.9027446" lon="12.2307546"><ele>454.49999999999994</ele><time>2026-04-19T07:47:38.778Z</time></trkpt><trkpt lat="42.9027834" lon="12.2308473"><ele>455.0</ele><time>2026-04-19T07:47:39.779Z</time></trkpt><trkpt lat="42.9028318" lon="12.230905"><ele>455.0</ele><time>2026-04-19T07:47:40.779Z</time></trkpt><trkpt lat="42.9029319" lon="12.2309935"><ele>455.0</ele><time>2026-04-19T07:47:42.779Z</time></trkpt><trkpt lat="42.9029949" lon="12.2310683"><ele>455.0</ele><time>2026-04-19T07:47:45.882Z</time></trkpt><trkpt lat="42.9029938" lon="12.2311814"><ele>455.0</ele><time>2026-04-19T07:47:47.673Z</time></trkpt><trkpt lat="42.9029504" lon="12.2312448"><ele>455.0</ele><time>2026-04-19T07:47:48.848Z</time></trkpt><trkpt lat="42.9028596" lon="12.231334"><ele>455.0</ele><time>2026-04-19T07:47:50.824Z</time></trkpt><trkpt lat="42.9028789" lon="12.2312419"><ele>455.0</ele><time>2026-04-19T07:47:53.84Z</time></trkpt><trkpt lat="42.9029383" lon="12.2311392"><ele>455.0</ele><time>2026-04-19T07:47:55.777Z</time></trkpt><trkpt lat="42.9029834" lon="12.2312652"><ele>455.0</ele><time>2026-04-19T07:47:56.855Z</time></trkpt><trkpt lat="42.9031344" lon="12.2313578"><ele>455.0</ele><time>2026-04-19T07:47:57.778Z</time></trkpt><trkpt lat="42.9032667" lon="12.2313169"><ele>455.0</ele><time>2026-04-19T07:47:58.779Z</time></trkpt><trkpt lat="42.9033822" lon="12.231266"><ele>455.0</ele><time>2026-04-19T07:47:59.787Z</time></trkpt><trkpt lat="42.9034875" lon="12.2312295"><ele>455.0</ele><time>2026-04-19T07:48:00.779Z</time></trkpt><trkpt lat="42.9035891" lon="12.2312045"><ele>455.0</ele><time>2026-04-19T07:48:01.778Z</time></trkpt><trkpt lat="42.9036942" lon="12.2311695"><ele>455.0</ele><time>2026-04-19T07:48:02.778Z</time></trkpt><trkpt lat="42.903777" lon="12.2311452"><ele>456.99999999999994</ele><time>2026-04-19T07:48:03.779Z</time></trkpt><trkpt lat="42.9038402" lon="12.2311085"><ele>459.0</ele><time>2026-04-19T07:48:04.779Z</time></trkpt><trkpt lat="42.9038851" lon="12.2310468"><ele>461.0</ele><time>2026-04-19T07:48:05.779Z</time></trkpt><trkpt lat="42.9039289" lon="12.2309714"><ele>463.0</ele><time>2026-04-19T07:48:06.782Z</time></trkpt><trkpt lat="42.9039585" lon="12.2308775"><ele>464.99999999999994</ele><time>2026-04-19T07:48:07.78Z</time></trkpt><trkpt lat="42.9039582" lon="12.2307546"><ele>467.0</ele><time>2026-04-19T07:48:08.78Z</time></trkpt><trkpt lat="42.90395" lon="12.2306425"><ele>466.66666666666663</ele><time>2026-04-19T07:48:09.781Z</time></trkpt><trkpt lat="42.9039479" lon="12.2305446"><ele>466.3333333333333</ele><time>2026-04-19T07:48:10.78Z</time></trkpt><trkpt lat="42.9040184" lon="12.2304606"><ele>466.0</ele><time>2026-04-19T07:48:12.779Z</time></trkpt><trkpt lat="42.904082" lon="12.2304597"><ele>465.66666666666663</ele><time>2026-04-19T07:48:13.782Z</time></trkpt><trkpt lat="42.9041645" lon="12.2304827"><ele>465.3333333333333</ele><time>2026-04-19T07:48:14.779Z</time></trkpt><trkpt lat="42.9042539" lon="12.2305047"><ele>465.0</ele><time>2026-04-19T07:48:15.782Z</time></trkpt><trkpt lat="42.9043347" lon="12.2305433"><ele>469.75</ele><time>2026-04-19T07:48:16.778Z</time></trkpt><trkpt lat="42.9044493" lon="12.2306734"><ele>474.5</ele><time>2026-04-19T07:48:17.778Z</time></trkpt><trkpt lat="42.9045512" lon="12.2308207"><ele>479.25</ele><time>2026-04-19T07:48:18.78Z</time></trkpt><trkpt lat="42.9046409" lon="12.2309667"><ele>484.0</ele><time>2026-04-19T07:48:19.78Z</time></trkpt><trkpt lat="42.904712" lon="12.2311002"><ele>484.0</ele><time>2026-04-19T07:48:20.782Z</time></trkpt><trkpt lat="42.9047684" lon="12.2312232"><ele>484.0</ele><time>2026-04-19T07:48:21.778Z</time></trkpt><trkpt lat="42.9048052" lon="12.2313422"><ele>484.0</ele><time>2026-04-19T07:48:22.784Z</time></trkpt><trkpt lat="42.9048257" lon="12.2314592"><ele>484.0</ele><time>2026-04-19T07:48:23.779Z</time></trkpt><trkpt lat="42.9048429" lon="12.2315814"><ele>484.0</ele><time>2026-04-19T07:48:24.78Z</time></trkpt><trkpt lat="42.9048473" lon="12.2317202"><ele>484.75</ele><time>2026-04-19T07:48:25.779Z</time></trkpt><trkpt lat="42.9048329" lon="12.2318757"><ele>485.5</ele><time>2026-04-19T07:48:26.779Z</time></trkpt><trkpt lat="42.9048048" lon="12.2320274"><ele>486.25</ele><time>2026-04-19T07:48:27.78Z</time></trkpt><trkpt lat="42.9047605" lon="12.2321645"><ele>487.0</ele><time>2026-04-19T07:48:28.78Z</time></trkpt><trkpt lat="42.9047073" lon="12.2323023"><ele>489.75</ele><time>2026-04-19T07:48:29.78Z</time></trkpt><trkpt lat="42.9046268" lon="12.2324219"><ele>492.5</ele><time>2026-04-19T07:48:30.782Z</time></trkpt><trkpt lat="42.9045327" lon="12.2325334"><ele>495.25</ele><time>2026-04-19T07:48:31.781Z</time></trkpt><trkpt lat="42.9044343" lon="12.2326274"><ele>498.0</ele><time>2026-04-19T07:48:32.78Z</time></trkpt><trkpt lat="42.9043422" lon="12.2327086"><ele>498.0</ele><time>2026-04-19T07:48:33.779Z</time></trkpt><trkpt lat="42.904259" lon="12.2327945"><ele>497.99999999999994</ele><time>2026-04-19T07:48:34.779Z</time></trkpt><trkpt lat="42.90419" lon="12.2328899"><ele>497.99999999999994</ele><time>2026-04-19T07:48:35.784Z</time></trkpt><trkpt lat="42.904148" lon="12.2329703"><ele>498.0</ele><time>2026-04-19T07:48:36.779Z</time></trkpt><trkpt lat="42.9041442" lon="12.2330741"><ele>498.0</ele><time>2026-04-19T07:48:38.78Z</time></trkpt><trkpt lat="42.9042482" lon="12.2330812"><ele>498.0</ele><time>2026-04-19T07:48:40.784Z</time></trkpt><trkpt lat="42.9043218" lon="12.2330603"><ele>497.99999999999994</ele><time>2026-04-19T07:48:41.781Z</time></trkpt><trkpt lat="42.9044058" lon="12.2330479"><ele>497.99999999999994</ele><time>2026-04-19T07:48:42.781Z</time></trkpt><trkpt lat="42.904493" lon="12.2330544"><ele>498.0</ele><time>2026-04-19T07:48:43.782Z</time></trkpt><trkpt lat="42.9045906" lon="12.2330676"><ele>498.0</ele><time>2026-04-19T07:48:44.779Z</time></trkpt><trkpt lat="42.9047029" lon="12.2330764"><ele>498.0</ele><time>2026-04-19T07:48:45.778Z</time></trkpt><trkpt lat="42.9048197" lon="12.233076"><ele>498.0</ele><time>2026-04-19T07:48:46.78Z</time></trkpt><trkpt lat="42.904941" lon="12.2330647"><ele>498.0</ele><time>2026-04-19T07:48:47.778Z</time></trkpt><trkpt lat="42.9050737" lon="12.2330392"><ele>498.0</ele><time>2026-04-19T07:48:48.778Z</time></trkpt><trkpt lat="42.9052063" lon="12.2330079"><ele>501.25</ele><time>2026-04-19T07:48:49.778Z</time></trkpt><trkpt lat="42.9053338" lon="12.232998"><ele>504.5</ele><time>2026-04-19T07:48:50.779Z</time></trkpt><trkpt lat="42.9054643" lon="12.2330013"><ele>507.75</ele><time>2026-04-19T07:48:51.778Z</time></trkpt><trkpt lat="42.9055838" lon="12.2330148"><ele>511.0</ele><time>2026-04-19T07:48:52.781Z</time></trkpt><trkpt lat="42.9056884" lon="12.2330287"><ele>511.0</ele><time>2026-04-19T07:48:53.779Z</time></trkpt><trkpt lat="42.905781" lon="12.233045"><ele>511.0</ele><time>2026-04-19T07:48:54.785Z</time></trkpt><trkpt lat="42.9058727" lon="12.23306"><ele>511.0</ele><time>2026-04-19T07:48:55.779Z</time></trkpt><trkpt lat="42.9059607" lon="12.2330524"><ele>511.0</ele><time>2026-04-19T07:48:56.779Z</time></trkpt><trkpt lat="42.9060441" lon="12.2330161"><ele>511.0</ele><time>2026-04-19T07:48:57.779Z</time></trkpt><trkpt lat="42.9061208" lon="12.2329443"><ele>512.25</ele><time>2026-04-19T07:48:58.78Z</time></trkpt><trkpt lat="42.9061955" lon="12.2328456"><ele>513.5</ele><time>2026-04-19T07:48:59.785Z</time></trkpt><trkpt lat="42.9062722" lon="12.2327249"><ele>514.75</ele><time>2026-04-19T07:49:00.779Z</time></trkpt><trkpt lat="42.9063512" lon="12.2325905"><ele>516.0</ele><time>2026-04-19T07:49:01.78Z</time></trkpt><trkpt lat="42.9064357" lon="12.2324516"><ele>516.0</ele><time>2026-04-19T07:49:02.779Z</time></trkpt><trkpt lat="42.9065257" lon="12.2323099"><ele>516.0</ele><time>2026-04-19T07:49:03.781Z</time></trkpt><trkpt lat="42.9066192" lon="12.2321722"><ele>516.0</ele><time>2026-04-19T07:49:04.78Z</time></trkpt><trkpt lat="42.9067172" lon="12.23202"><ele>516.0</ele><time>2026-04-19T07:49:05.784Z</time></trkpt><trkpt lat="42.9068004" lon="12.2318773"><ele>517.25</ele><time>2026-04-19T07:49:06.779Z</time></trkpt><trkpt lat="42.906898" lon="12.2317118"><ele>518.5</ele><time>2026-04-19T07:49:07.779Z</time></trkpt><trkpt lat="42.9069949" lon="12.2315511"><ele>519.75</ele><time>2026-04-19T07:49:08.785Z</time></trkpt><trkpt lat="42.9070842" lon="12.2314072"><ele>521.0</ele><time>2026-04-19T07:49:09.779Z</time></trkpt><trkpt lat="42.9071706" lon="12.2312752"><ele>522.0</ele><time>2026-04-19T07:49:10.783Z</time></trkpt><trkpt lat="42.9072546" lon="12.2311527"><ele>523.0</ele><time>2026-04-19T07:49:11.779Z</time></trkpt><trkpt lat="42.9073267" lon="12.231035"><ele>524.0</ele><time>2026-04-19T07:49:12.779Z</time></trkpt><trkpt lat="42.907395" lon="12.230925"><ele>525.0</ele><time>2026-04-19T07:49:13.779Z</time></trkpt><trkpt lat="42.9074617" lon="12.230825"><ele>526.0</ele><time>2026-04-19T07:49:14.778Z</time></trkpt><trkpt lat="42.907515" lon="12.23076"><ele>524.4</ele><time>2026-04-19T07:49:15.782Z</time></trkpt><trkpt lat="42.9075883" lon="12.2306767"><ele>522.8</ele><time>2026-04-19T07:49:16.779Z</time></trkpt><trkpt lat="42.90767" lon="12.2305817"><ele>521.1999999999999</ele><time>2026-04-19T07:49:17.78Z</time></trkpt><trkpt lat="42.9077533" lon="12.2304767"><ele>519.6</ele><time>2026-04-19T07:49:18.78Z</time></trkpt><trkpt lat="42.90783" lon="12.2303783"><ele>518.0</ele><time>2026-04-19T07:49:19.781Z</time></trkpt><trkpt lat="42.9078917" lon="12.2303033"><ele>520.6666666666666</ele><time>2026-04-19T07:49:20.779Z</time></trkpt><trkpt lat="42.907955" lon="12.2302267"><ele>523.3333333333333</ele><time>2026-04-19T07:49:21.783Z</time></trkpt><trkpt lat="42.9080217" lon="12.2301717"><ele>526.0</ele><time>2026-04-19T07:49:22.779Z</time></trkpt><trkpt lat="42.9080933" lon="12.23013"><ele>528.6666666666666</ele><time>2026-04-19T07:49:23.782Z</time></trkpt><trkpt lat="42.908165" lon="12.2301217"><ele>531.3333333333334</ele><time>2026-04-19T07:49:24.779Z</time></trkpt><trkpt lat="42.908245" lon="12.230135"><ele>534.0</ele><time>2026-04-19T07:49:25.779Z</time></trkpt><trkpt lat="42.908345" lon="12.23017"><ele>532.0</ele><time>2026-04-19T07:49:26.78Z</time></trkpt><trkpt lat="42.9084433" lon="12.2302117"><ele>530.0</ele><time>2026-04-19T07:49:27.78Z</time></trkpt><trkpt lat="42.908545" lon="12.2302467"><ele>528.0</ele><time>2026-04-19T07:49:28.779Z</time></trkpt><trkpt lat="42.9086483" lon="12.23027"><ele>526.0</ele><time>2026-04-19T07:49:29.779Z</time></trkpt><trkpt lat="42.9087483" lon="12.2302933"><ele>524.0</ele><time>2026-04-19T07:49:30.779Z</time></trkpt><trkpt lat="42.9088417" lon="12.2302983"><ele>524.0</ele><time>2026-04-19T07:49:31.783Z</time></trkpt><trkpt lat="42.9089267" lon="12.2302767"><ele>524.0</ele><time>2026-04-19T07:49:32.781Z</time></trkpt><trkpt lat="42.908995" lon="12.2302333"><ele>524.0</ele><time>2026-04-19T07:49:33.78Z</time></trkpt><trkpt lat="42.909045" lon="12.2301583"><ele>524.0</ele><time>2026-04-19T07:49:34.782Z</time></trkpt><trkpt lat="42.9090883" lon="12.2300683"><ele>524.0</ele><time>2026-04-19T07:49:35.779Z</time></trkpt><trkpt lat="42.909115" lon="12.2299683"><ele>524.0</ele><time>2026-04-19T07:49:36.783Z</time></trkpt><trkpt lat="42.90911" lon="12.229845"><ele>525.6666666666666</ele><time>2026-04-19T07:49:37.778Z</time></trkpt><trkpt lat="42.9090867" lon="12.22972"><ele>527.3333333333333</ele><time>2026-04-19T07:49:38.78Z</time></trkpt><trkpt lat="42.909075" lon="12.2296083"><ele>529.0</ele><time>2026-04-19T07:49:39.778Z</time></trkpt><trkpt lat="42.909075" lon="12.2294917"><ele>530.6666666666666</ele><time>2026-04-19T07:49:40.78Z</time></trkpt><trkpt lat="42.90909" lon="12.2293767"><ele>532.3333333333334</ele><time>2026-04-19T07:49:41.781Z</time></trkpt><trkpt lat="42.909125" lon="12.2292767"><ele>534.0</ele><time>2026-04-19T07:49:42.779Z</time></trkpt><trkpt lat="42.9091817" lon="12.229185"><ele>535.1666666666666</ele><time>2026-04-19T07:49:43.781Z</time></trkpt><trkpt lat="42.9092433" lon="12.2291017"><ele>536.3333333333334</ele><time>2026-04-19T07:49:44.779Z</time></trkpt><trkpt lat="42.9093017" lon="12.2290183"><ele>537.5</ele><time>2026-04-19T07:49:45.781Z</time></trkpt><trkpt lat="42.9093417" lon="12.2289483"><ele>538.6666666666667</ele><time>2026-04-19T07:49:46.779Z</time></trkpt><trkpt lat="42.9093933" lon="12.2288517"><ele>539.8333333333334</ele><time>2026-04-19T07:49:49.781Z</time></trkpt><trkpt lat="42.9094683" lon="12.22886"><ele>541.0</ele><time>2026-04-19T07:49:51.778Z</time></trkpt><trkpt lat="42.9095967" lon="12.22889"><ele>541.0</ele><time>2026-04-19T07:49:53.779Z</time></trkpt><trkpt lat="42.9096767" lon="12.228895"><ele>541.0</ele><time>2026-04-19T07:49:54.782Z</time></trkpt><trkpt lat="42.9097733" lon="12.2288833"><ele>541.0</ele><time>2026-04-19T07:49:55.78Z</time></trkpt><trkpt lat="42.9098733" lon="12.2288633"><ele>541.0</ele><time>2026-04-19T07:49:56.781Z</time></trkpt><trkpt lat="42.9099767" lon="12.228825"><ele>541.0</ele><time>2026-04-19T07:49:57.779Z</time></trkpt><trkpt lat="42.9100717" lon="12.2287717"><ele>537.2</ele><time>2026-04-19T07:49:58.78Z</time></trkpt><trkpt lat="42.910165" lon="12.2287"><ele>533.4000000000001</ele><time>2026-04-19T07:49:59.779Z</time></trkpt><trkpt lat="42.910245" lon="12.2286183"><ele>529.6</ele><time>2026-04-19T07:50:00.78Z</time></trkpt><trkpt lat="42.9103133" lon="12.2285183"><ele>525.8000000000001</ele><time>2026-04-19T07:50:01.782Z</time></trkpt><trkpt lat="42.9103767" lon="12.2284167"><ele>522.0</ele><time>2026-04-19T07:50:02.781Z</time></trkpt><trkpt lat="42.9104333" lon="12.2283167"><ele>522.0</ele><time>2026-04-19T07:50:03.785Z</time></trkpt><trkpt lat="42.91049" lon="12.228215"><ele>522.0</ele><time>2026-04-19T07:50:04.778Z</time></trkpt><trkpt lat="42.91054" lon="12.2281167"><ele>522.0</ele><time>2026-04-19T07:50:05.779Z</time></trkpt><trkpt lat="42.9105917" lon="12.22803"><ele>522.0</ele><time>2026-04-19T07:50:06.778Z</time></trkpt><trkpt lat="42.9106433" lon="12.22795"><ele>522.0</ele><time>2026-04-19T07:50:07.78Z</time></trkpt><trkpt lat="42.9107" lon="12.227875"><ele>522.0</ele><time>2026-04-19T07:50:08.782Z</time></trkpt><trkpt lat="42.910755" lon="12.227805"><ele>524.1666666666666</ele><time>2026-04-19T07:50:09.778Z</time></trkpt><trkpt lat="42.9108183" lon="12.2277517"><ele>526.3333333333334</ele><time>2026-04-19T07:50:10.78Z</time></trkpt><trkpt lat="42.9108867" lon="12.22772"><ele>528.5</ele><time>2026-04-19T07:50:11.78Z</time></trkpt><trkpt lat="42.9109633" lon="12.2277267"><ele>530.6666666666667</ele><time>2026-04-19T07:50:12.782Z</time></trkpt><trkpt lat="42.9110433" lon="12.2277717"><ele>532.8333333333334</ele><time>2026-04-19T07:50:13.78Z</time></trkpt><trkpt lat="42.9111183" lon="12.22783"><ele>535.0</ele><time>2026-04-19T07:50:14.781Z</time></trkpt><trkpt lat="42.9111817" lon="12.2279683"><ele>535.6</ele><time>2026-04-19T07:50:15.778Z</time></trkpt><trkpt lat="42.91124" lon="12.2281067"><ele>536.2</ele><time>2026-04-19T07:50:16.779Z</time></trkpt><trkpt lat="42.9112883" lon="12.2282367"><ele>536.8</ele><time>2026-04-19T07:50:17.781Z</time></trkpt><trkpt lat="42.91133" lon="12.2283517"><ele>537.4</ele><time>2026-04-19T07:50:18.78Z</time></trkpt><trkpt lat="42.911375" lon="12.2284533"><ele>538.0</ele><time>2026-04-19T07:50:19.78Z</time></trkpt><trkpt lat="42.9114183" lon="12.2285583"><ele>535.8333333333334</ele><time>2026-04-19T07:50:20.783Z</time></trkpt><trkpt lat="42.9114583" lon="12.22866"><ele>533.6666666666667</ele><time>2026-04-19T07:50:21.78Z</time></trkpt><trkpt lat="42.911505" lon="12.228765"><ele>531.5</ele><time>2026-04-19T07:50:22.78Z</time></trkpt><trkpt lat="42.9115417" lon="12.228875"><ele>529.3333333333334</ele><time>2026-04-19T07:50:23.784Z</time></trkpt><trkpt lat="42.9115717" lon="12.2289883"><ele>527.1666666666666</ele><time>2026-04-19T07:50:24.78Z</time></trkpt><trkpt lat="42.9116" lon="12.2291033"><ele>525.0</ele><time>2026-04-19T07:50:25.781Z</time></trkpt><trkpt lat="42.91162" lon="12.2292133"><ele>523.6</ele><time>2026-04-19T07:50:26.779Z</time></trkpt><trkpt lat="42.9116333" lon="12.2293"><ele>522.2</ele><time>2026-04-19T07:50:27.778Z</time></trkpt><trkpt lat="42.911675" lon="12.22946"><ele>520.8</ele><time>2026-04-19T07:50:29.778Z</time></trkpt><trkpt lat="42.9117317" lon="12.229605"><ele>519.4</ele><time>2026-04-19T07:50:31.778Z</time></trkpt><trkpt lat="42.91177" lon="12.22972"><ele>518.0</ele><time>2026-04-19T07:50:33.778Z</time></trkpt><trkpt lat="42.9117983" lon="12.2298033"><ele>518.0</ele><time>2026-04-19T07:50:35.779Z</time></trkpt><trkpt lat="42.9118233" lon="12.2298983"><ele>518.0</ele><time>2026-04-19T07:50:39.778Z</time></trkpt><trkpt lat="42.91177" lon="12.229805"><ele>518.0</ele><time>2026-04-19T07:51:13.778Z</time></trkpt><trkpt lat="42.9117433" lon="12.2297033"><ele>518.0</ele><time>2026-04-19T07:51:14.778Z</time></trkpt><trkpt lat="42.9117017" lon="12.2295833"><ele>518.0</ele><time>2026-04-19T07:51:15.778Z</time></trkpt><trkpt lat="42.911655" lon="12.22946"><ele>518.0</ele><time>2026-04-19T07:51:16.778Z</time></trkpt><trkpt lat="42.9116117" lon="12.2293317"><ele>518.0</ele><time>2026-04-19T07:51:17.78Z</time></trkpt><trkpt lat="42.9115733" lon="12.2291983"><ele>518.0</ele><time>2026-04-19T07:51:18.777Z</time></trkpt><trkpt lat="42.9115383" lon="12.2290533"><ele>518.0</ele><time>2026-04-19T07:51:19.783Z</time></trkpt><trkpt lat="42.9115067" lon="12.228905"><ele>518.0</ele><time>2026-04-19T07:51:20.778Z</time></trkpt><trkpt lat="42.911465" lon="12.2287567"><ele>518.0</ele><time>2026-04-19T07:51:21.778Z</time></trkpt><trkpt lat="42.91143" lon="12.228615"><ele>519.4</ele><time>2026-04-19T07:51:22.78Z</time></trkpt><trkpt lat="42.911385" lon="12.2284783"><ele>520.8</ele><time>2026-04-19T07:51:23.779Z</time></trkpt><trkpt lat="42.911335" lon="12.228355"><ele>522.2</ele><time>2026-04-19T07:51:24.782Z</time></trkpt><trkpt lat="42.9112833" lon="12.2282383"><ele>523.6</ele><time>2026-04-19T07:51:25.779Z</time></trkpt><trkpt lat="42.9112317" lon="12.228125"><ele>525.0</ele><time>2026-04-19T07:51:26.778Z</time></trkpt><trkpt lat="42.911185" lon="12.228015"><ele>527.0</ele><time>2026-04-19T07:51:27.778Z</time></trkpt><trkpt lat="42.9111317" lon="12.2279033"><ele>529.0</ele><time>2026-04-19T07:51:28.779Z</time></trkpt><trkpt lat="42.911065" lon="12.2278"><ele>531.0</ele><time>2026-04-19T07:51:29.782Z</time></trkpt><trkpt lat="42.9109917" lon="12.2277233"><ele>533.0</ele><time>2026-04-19T07:51:30.778Z</time></trkpt><trkpt lat="42.91091" lon="12.2276867"><ele>535.0</ele><time>2026-04-19T07:51:31.781Z</time></trkpt><trkpt lat="42.9108267" lon="12.22771"><ele>535.0</ele><time>2026-04-19T07:51:32.778Z</time></trkpt><trkpt lat="42.910745" lon="12.2277617"><ele>535.0</ele><time>2026-04-19T07:51:33.777Z</time></trkpt><trkpt lat="42.9106667" lon="12.2278483"><ele>535.0</ele><time>2026-04-19T07:51:34.78Z</time></trkpt><trkpt lat="42.9105967" lon="12.2279583"><ele>535.0</ele><time>2026-04-19T07:51:35.779Z</time></trkpt><trkpt lat="42.910535" lon="12.22807"><ele>535.0</ele><time>2026-04-19T07:51:36.778Z</time></trkpt><trkpt lat="42.910475" lon="12.22819"><ele>531.75</ele><time>2026-04-19T07:51:37.783Z</time></trkpt><trkpt lat="42.91041" lon="12.228315"><ele>528.5</ele><time>2026-04-19T07:51:38.778Z</time></trkpt><trkpt lat="42.910335" lon="12.2284467"><ele>525.25</ele><time>2026-04-19T07:51:39.779Z</time></trkpt><trkpt lat="42.910245" lon="12.2285683"><ele>522.0</ele><time>2026-04-19T07:51:40.778Z</time></trkpt><trkpt lat="42.9101367" lon="12.2286733"><ele>526.75</ele><time>2026-04-19T07:51:41.779Z</time></trkpt><trkpt lat="42.9100167" lon="12.2287633"><ele>531.5</ele><time>2026-04-19T07:51:42.784Z</time></trkpt><trkpt lat="42.9098817" lon="12.2288383"><ele>536.25</ele><time>2026-04-19T07:51:43.778Z</time></trkpt><trkpt lat="42.9097333" lon="12.2288833"><ele>541.0</ele><time>2026-04-19T07:51:44.78Z</time></trkpt><trkpt lat="42.9095767" lon="12.2289017"><ele>541.0</ele><time>2026-04-19T07:51:45.78Z</time></trkpt><trkpt lat="42.90944" lon="12.2288783"><ele>541.0</ele><time>2026-04-19T07:51:46.78Z</time></trkpt><trkpt lat="42.9093167" lon="12.2288333"><ele>541.0</ele><time>2026-04-19T07:51:47.778Z</time></trkpt><trkpt lat="42.90922" lon="12.22874"><ele>541.0</ele><time>2026-04-19T07:51:48.778Z</time></trkpt><trkpt lat="42.9091483" lon="12.2286033"><ele>540.25</ele><time>2026-04-19T07:51:49.778Z</time></trkpt><trkpt lat="42.909095" lon="12.2284217"><ele>539.5</ele><time>2026-04-19T07:51:50.78Z</time></trkpt><trkpt lat="42.9090467" lon="12.2282233"><ele>538.75</ele><time>2026-04-19T07:51:51.778Z</time></trkpt><trkpt lat="42.9089967" lon="12.2280533"><ele>538.0</ele><time>2026-04-19T07:51:52.778Z</time></trkpt><trkpt lat="42.9089333" lon="12.22791"><ele>540.5</ele><time>2026-04-19T07:51:53.779Z</time></trkpt><trkpt lat="42.9088467" lon="12.2278033"><ele>543.0</ele><time>2026-04-19T07:51:54.778Z</time></trkpt><trkpt lat="42.9087417" lon="12.227745"><ele>545.5</ele><time>2026-04-19T07:51:55.783Z</time></trkpt><trkpt lat="42.9086317" lon="12.2277233"><ele>548.0</ele><time>2026-04-19T07:51:56.778Z</time></trkpt><trkpt lat="42.9085233" lon="12.2276967"><ele>548.0</ele><time>2026-04-19T07:51:57.779Z</time></trkpt><trkpt lat="42.9084217" lon="12.2276533"><ele>548.0</ele><time>2026-04-19T07:51:58.779Z</time></trkpt><trkpt lat="42.9083167" lon="12.2276"><ele>548.0</ele><time>2026-04-19T07:51:59.781Z</time></trkpt><trkpt lat="42.9081983" lon="12.2275517"><ele>548.0</ele><time>2026-04-19T07:52:00.778Z</time></trkpt><trkpt lat="42.9080717" lon="12.22751"><ele>547.0</ele><time>2026-04-19T07:52:01.779Z</time></trkpt><trkpt lat="42.90795" lon="12.2274717"><ele>546.0</ele><time>2026-04-19T07:52:02.779Z</time></trkpt><trkpt lat="42.9078383" lon="12.2274217"><ele>545.0</ele><time>2026-04-19T07:52:03.779Z</time></trkpt><trkpt lat="42.9077517" lon="12.227345"><ele>544.0</ele><time>2026-04-19T07:52:04.779Z</time></trkpt><trkpt lat="42.9076933" lon="12.2272433"><ele>543.0</ele><time>2026-04-19T07:52:05.78Z</time></trkpt><trkpt lat="42.90766" lon="12.227125"><ele>543.0</ele><time>2026-04-19T07:52:06.783Z</time></trkpt><trkpt lat="42.9076733" lon="12.226985"><ele>543.0</ele><time>2026-04-19T07:52:07.78Z</time></trkpt><trkpt lat="42.90771" lon="12.22683"><ele>543.0</ele><time>2026-04-19T07:52:08.778Z</time></trkpt><trkpt lat="42.90776" lon="12.2266683"><ele>543.0</ele><time>2026-04-19T07:52:09.782Z</time></trkpt><trkpt lat="42.90781" lon="12.2265133"><ele>543.1999999999999</ele><time>2026-04-19T07:52:10.778Z</time></trkpt><trkpt lat="42.9078417" lon="12.2263817"><ele>543.4</ele><time>2026-04-19T07:52:11.785Z</time></trkpt><trkpt lat="42.9078567" lon="12.22626"><ele>543.5999999999999</ele><time>2026-04-19T07:52:12.778Z</time></trkpt><trkpt lat="42.9078367" lon="12.22615"><ele>543.8</ele><time>2026-04-19T07:52:13.779Z</time></trkpt><trkpt lat="42.9077717" lon="12.22608"><ele>544.0</ele><time>2026-04-19T07:52:14.777Z</time></trkpt><trkpt lat="42.9076817" lon="12.226035"><ele>542.5</ele><time>2026-04-19T07:52:15.779Z</time></trkpt><trkpt lat="42.9075767" lon="12.2260167"><ele>541.0</ele><time>2026-04-19T07:52:16.778Z</time></trkpt><trkpt lat="42.907415" lon="12.2260617"><ele>539.5</ele><time>2026-04-19T07:52:17.779Z</time></trkpt><trkpt lat="42.9072533" lon="12.2261067"><ele>538.0</ele><time>2026-04-19T07:52:18.779Z</time></trkpt><trkpt lat="42.90708" lon="12.22616"><ele>538.0</ele><time>2026-04-19T07:52:19.779Z</time></trkpt><trkpt lat="42.90689" lon="12.226245"><ele>538.0</ele><time>2026-04-19T07:52:20.778Z</time></trkpt><trkpt lat="42.9066933" lon="12.2263433"><ele>538.0</ele><time>2026-04-19T07:52:21.778Z</time></trkpt><trkpt lat="42.9064717" lon="12.2264283"><ele>531.0</ele><time>2026-04-19T07:52:22.785Z</time></trkpt><trkpt lat="42.9062417" lon="12.2265033"><ele>524.0</ele><time>2026-04-19T07:52:23.779Z</time></trkpt><trkpt lat="42.9060267" lon="12.2265667"><ele>525.6666666666666</ele><time>2026-04-19T07:52:24.778Z</time></trkpt><trkpt lat="42.9058283" lon="12.2266267"><ele>527.3333333333334</ele><time>2026-04-19T07:52:25.779Z</time></trkpt><trkpt lat="42.905665" lon="12.226655"><ele>529.0</ele><time>2026-04-19T07:52:26.78Z</time></trkpt><trkpt lat="42.905515" lon="12.2266383"><ele>529.0</ele><time>2026-04-19T07:52:27.781Z</time></trkpt><trkpt lat="42.9053933" lon="12.2265567"><ele>529.0</ele><time>2026-04-19T07:52:28.78Z</time></trkpt><trkpt lat="42.9053317" lon="12.2264317"><ele>529.0</ele><time>2026-04-19T07:52:29.78Z</time></trkpt><trkpt lat="42.9053" lon="12.2262833"><ele>529.0</ele><time>2026-04-19T07:52:30.78Z</time></trkpt><trkpt lat="42.905285" lon="12.2261167"><ele>531.3333333333334</ele><time>2026-04-19T07:52:31.779Z</time></trkpt><trkpt lat="42.905315" lon="12.2259317"><ele>533.6666666666666</ele><time>2026-04-19T07:52:32.783Z</time></trkpt><trkpt lat="42.9053683" lon="12.2257283"><ele>536.0</ele><time>2026-04-19T07:52:33.779Z</time></trkpt><trkpt lat="42.9054067" lon="12.2255133"><ele>537.3333333333333</ele><time>2026-04-19T07:52:34.783Z</time></trkpt><trkpt lat="42.9054017" lon="12.225305"><ele>538.6666666666666</ele><time>2026-04-19T07:52:35.779Z</time></trkpt><trkpt lat="42.90537" lon="12.2250933"><ele>540.0</ele><time>2026-04-19T07:52:36.778Z</time></trkpt><trkpt lat="42.9053433" lon="12.22487"><ele>541.25</ele><time>2026-04-19T07:52:37.779Z</time></trkpt><trkpt lat="42.9053317" lon="12.22465"><ele>542.5</ele><time>2026-04-19T07:52:38.78Z</time></trkpt><trkpt lat="42.90533" lon="12.224455"><ele>543.75</ele><time>2026-04-19T07:52:39.779Z</time></trkpt><trkpt lat="42.90531" lon="12.2242867"><ele>545.0</ele><time>2026-04-19T07:52:40.78Z</time></trkpt><trkpt lat="42.9052517" lon="12.2241567"><ele>545.0</ele><time>2026-04-19T07:52:41.782Z</time></trkpt><trkpt lat="42.9051717" lon="12.2240683"><ele>545.0</ele><time>2026-04-19T07:52:42.779Z</time></trkpt><trkpt lat="42.9050717" lon="12.22402"><ele>545.0</ele><time>2026-04-19T07:52:43.779Z</time></trkpt><trkpt lat="42.9049783" lon="12.2239883"><ele>545.0</ele><time>2026-04-19T07:52:44.779Z</time></trkpt><trkpt lat="42.9048933" lon="12.223965"><ele>545.0</ele><time>2026-04-19T07:52:45.78Z</time></trkpt><trkpt lat="42.904815" lon="12.223945"><ele>542.8333333333333</ele><time>2026-04-19T07:52:46.779Z</time></trkpt><trkpt lat="42.9047517" lon="12.2239067"><ele>540.6666666666666</ele><time>2026-04-19T07:52:47.778Z</time></trkpt><trkpt lat="42.9047083" lon="12.223835"><ele>538.5</ele><time>2026-04-19T07:52:48.781Z</time></trkpt><trkpt lat="42.904695" lon="12.2237217"><ele>536.3333333333334</ele><time>2026-04-19T07:52:49.782Z</time></trkpt><trkpt lat="42.9047017" lon="12.2236"><ele>534.1666666666667</ele><time>2026-04-19T07:52:50.78Z</time></trkpt><trkpt lat="42.9047317" lon="12.2234667"><ele>532.0</ele><time>2026-04-19T07:52:51.779Z</time></trkpt><trkpt lat="42.9047733" lon="12.223335"><ele>532.0</ele><time>2026-04-19T07:52:52.78Z</time></trkpt><trkpt lat="42.90482" lon="12.2232067"><ele>532.0</ele><time>2026-04-19T07:52:53.782Z</time></trkpt><trkpt lat="42.9048617" lon="12.223075"><ele>532.0</ele><time>2026-04-19T07:52:54.78Z</time></trkpt><trkpt lat="42.9049033" lon="12.22295"><ele>532.0</ele><time>2026-04-19T07:52:55.787Z</time></trkpt><trkpt lat="42.9049317" lon="12.2228283"><ele>532.0</ele><time>2026-04-19T07:52:56.777Z</time></trkpt><trkpt lat="42.9049467" lon="12.222705"><ele>531.6</ele><time>2026-04-19T07:52:57.778Z</time></trkpt><trkpt lat="42.9049567" lon="12.2225867"><ele>531.2</ele><time>2026-04-19T07:52:58.778Z</time></trkpt><trkpt lat="42.904955" lon="12.2224617"><ele>530.8</ele><time>2026-04-19T07:52:59.779Z</time></trkpt><trkpt lat="42.9049483" lon="12.222335"><ele>530.4</ele><time>2026-04-19T07:53:00.781Z</time></trkpt><trkpt lat="42.9049417" lon="12.2222017"><ele>530.0</ele><time>2026-04-19T07:53:01.78Z</time></trkpt><trkpt lat="42.904935" lon="12.222075"><ele>529.0</ele><time>2026-04-19T07:53:02.782Z</time></trkpt><trkpt lat="42.90492" lon="12.2219517"><ele>528.0</ele><time>2026-04-19T07:53:03.78Z</time></trkpt><trkpt lat="42.9049133" lon="12.2218317"><ele>527.0</ele><time>2026-04-19T07:53:04.779Z</time></trkpt><trkpt lat="42.9049167" lon="12.2217083"><ele>526.0</ele><time>2026-04-19T07:53:05.778Z</time></trkpt><trkpt lat="42.9049217" lon="12.221585"><ele>525.0</ele><time>2026-04-19T07:53:06.779Z</time></trkpt><trkpt lat="42.9049417" lon="12.2214483"><ele>523.0</ele><time>2026-04-19T07:53:07.783Z</time></trkpt><trkpt lat="42.9049683" lon="12.2213067"><ele>521.0</ele><time>2026-04-19T07:53:08.779Z</time></trkpt><trkpt lat="42.9049883" lon="12.2211667"><ele>519.0</ele><time>2026-04-19T07:53:09.779Z</time></trkpt><trkpt lat="42.9050183" lon="12.2210317"><ele>517.0</ele><time>2026-04-19T07:53:10.779Z</time></trkpt><trkpt lat="42.9050383" lon="12.2208933"><ele>515.0</ele><time>2026-04-19T07:53:11.779Z</time></trkpt><trkpt lat="42.9050417" lon="12.2207533"><ele>514.8</ele><time>2026-04-19T07:53:12.779Z</time></trkpt><trkpt lat="42.9050517" lon="12.2206217"><ele>514.6</ele><time>2026-04-19T07:53:13.785Z</time></trkpt><trkpt lat="42.9050833" lon="12.2204833"><ele>514.4</ele><time>2026-04-19T07:53:14.779Z</time></trkpt><trkpt lat="42.9051217" lon="12.22034"><ele>514.2</ele><time>2026-04-19T07:53:15.778Z</time></trkpt><trkpt lat="42.9051733" lon="12.2202017"><ele>514.0</ele><time>2026-04-19T07:53:16.778Z</time></trkpt><trkpt lat="42.9052267" lon="12.2200667"><ele>514.0</ele><time>2026-04-19T07:53:17.778Z</time></trkpt><trkpt lat="42.905285" lon="12.219945"><ele>514.0</ele><time>2026-04-19T07:53:18.781Z</time></trkpt><trkpt lat="42.905345" lon="12.219835"><ele>514.0</ele><time>2026-04-19T07:53:19.778Z</time></trkpt><trkpt lat="42.9054033" lon="12.219755"><ele>514.0</ele><time>2026-04-19T07:53:20.778Z</time></trkpt><trkpt lat="42.9054667" lon="12.2196883"><ele>514.0</ele><time>2026-04-19T07:53:21.779Z</time></trkpt><trkpt lat="42.9055417" lon="12.2196583"><ele>514.0</ele><time>2026-04-19T07:53:22.782Z</time></trkpt><trkpt lat="42.9056267" lon="12.2196483"><ele>513.8</ele><time>2026-04-19T07:53:23.78Z</time></trkpt><trkpt lat="42.905715" lon="12.2196883"><ele>513.5999999999999</ele><time>2026-04-19T07:53:24.787Z</time></trkpt><trkpt lat="42.9058017" lon="12.2197017"><ele>513.4</ele><time>2026-04-19T07:53:25.779Z</time></trkpt><trkpt lat="42.905885" lon="12.219675"><ele>513.1999999999999</ele><time>2026-04-19T07:53:26.779Z</time></trkpt><trkpt lat="42.90596" lon="12.21961"><ele>513.0</ele><time>2026-04-19T07:53:27.779Z</time></trkpt><trkpt lat="42.9060267" lon="12.2195033"><ele>513.0</ele><time>2026-04-19T07:53:28.781Z</time></trkpt><trkpt lat="42.90608" lon="12.219375"><ele>513.0</ele><time>2026-04-19T07:53:29.781Z</time></trkpt><trkpt lat="42.9061067" lon="12.2192417"><ele>513.0</ele><time>2026-04-19T07:53:30.785Z</time></trkpt><trkpt lat="42.9061117" lon="12.2190983"><ele>513.0</ele><time>2026-04-19T07:53:31.778Z</time></trkpt><trkpt lat="42.9061083" lon="12.2189867"><ele>513.0</ele><time>2026-04-19T07:53:32.781Z</time></trkpt><trkpt lat="42.9061083" lon="12.2188967"><ele>511.0</ele><time>2026-04-19T07:53:33.781Z</time></trkpt><trkpt lat="42.90613" lon="12.218815"><ele>509.0</ele><time>2026-04-19T07:53:34.78Z</time></trkpt><trkpt lat="42.9061733" lon="12.218735"><ele>507.0</ele><time>2026-04-19T07:53:35.787Z</time></trkpt><trkpt lat="42.9062333" lon="12.218645"><ele>505.0</ele><time>2026-04-19T07:53:36.779Z</time></trkpt><trkpt lat="42.9063" lon="12.2185633"><ele>503.0</ele><time>2026-04-19T07:53:37.782Z</time></trkpt><trkpt lat="42.906375" lon="12.21848"><ele>501.0</ele><time>2026-04-19T07:53:38.781Z</time></trkpt><trkpt lat="42.9064567" lon="12.2184033"><ele>501.0</ele><time>2026-04-19T07:53:39.78Z</time></trkpt><trkpt lat="42.9065367" lon="12.2183283"><ele>501.0</ele><time>2026-04-19T07:53:40.78Z</time></trkpt><trkpt lat="42.9066183" lon="12.218255"><ele>501.0</ele><time>2026-04-19T07:53:41.783Z</time></trkpt><trkpt lat="42.9066983" lon="12.2181783"><ele>501.0</ele><time>2026-04-19T07:53:42.78Z</time></trkpt><trkpt lat="42.9067717" lon="12.2181083"><ele>501.0</ele><time>2026-04-19T07:53:43.781Z</time></trkpt><trkpt lat="42.906845" lon="12.218025"><ele>498.8333333333333</ele><time>2026-04-19T07:53:44.788Z</time></trkpt><trkpt lat="42.9069167" lon="12.2179417"><ele>496.66666666666663</ele><time>2026-04-19T07:53:45.779Z</time></trkpt><trkpt lat="42.9069817" lon="12.217855"><ele>494.5</ele><time>2026-04-19T07:53:46.779Z</time></trkpt><trkpt lat="42.907035" lon="12.2177733"><ele>492.3333333333333</ele><time>2026-04-19T07:53:47.78Z</time></trkpt><trkpt lat="42.907075" lon="12.2176817"><ele>490.16666666666663</ele><time>2026-04-19T07:53:48.78Z</time></trkpt><trkpt lat="42.9070983" lon="12.2175867"><ele>488.0</ele><time>2026-04-19T07:53:49.781Z</time></trkpt><trkpt lat="42.90711" lon="12.2174917"><ele>487.99999999999994</ele><time>2026-04-19T07:53:50.781Z</time></trkpt><trkpt lat="42.9071233" lon="12.2173967"><ele>488.0</ele><time>2026-04-19T07:53:51.782Z</time></trkpt><trkpt lat="42.9071533" lon="12.2173117"><ele>488.0</ele><time>2026-04-19T07:53:52.784Z</time></trkpt><trkpt lat="42.9072033" lon="12.2172433"><ele>488.0</ele><time>2026-04-19T07:53:53.781Z</time></trkpt><trkpt lat="42.907275" lon="12.2171933"><ele>487.99999999999994</ele><time>2026-04-19T07:53:54.78Z</time></trkpt><trkpt lat="42.9073633" lon="12.217155"><ele>488.0</ele><time>2026-04-19T07:53:55.781Z</time></trkpt><trkpt lat="42.9074533" lon="12.2171283"><ele>487.8333333333333</ele><time>2026-04-19T07:53:56.78Z</time></trkpt><trkpt lat="42.90754" lon="12.217095"><ele>487.66666666666663</ele><time>2026-04-19T07:53:57.78Z</time></trkpt><trkpt lat="42.9076167" lon="12.21705"><ele>487.5</ele><time>2026-04-19T07:53:58.785Z</time></trkpt><trkpt lat="42.907675" lon="12.2169933"><ele>487.33333333333337</ele><time>2026-04-19T07:53:59.781Z</time></trkpt><trkpt lat="42.9077167" lon="12.2169183"><ele>487.1666666666667</ele><time>2026-04-19T07:54:00.781Z</time></trkpt><trkpt lat="42.9077433" lon="12.2168333"><ele>487.0</ele><time>2026-04-19T07:54:01.781Z</time></trkpt><trkpt lat="42.9077583" lon="12.21672"><ele>487.0</ele><time>2026-04-19T07:54:02.78Z</time></trkpt><trkpt lat="42.9077717" lon="12.21657"><ele>487.0</ele><time>2026-04-19T07:54:03.782Z</time></trkpt><trkpt lat="42.9077967" lon="12.21642"><ele>487.0</ele><time>2026-04-19T07:54:04.779Z</time></trkpt><trkpt lat="42.9078383" lon="12.2162767"><ele>487.0</ele><time>2026-04-19T07:54:05.78Z</time></trkpt><trkpt lat="42.907885" lon="12.216135"><ele>485.20000000000005</ele><time>2026-04-19T07:54:06.78Z</time></trkpt><trkpt lat="42.9079317" lon="12.2160117"><ele>483.40000000000003</ele><time>2026-04-19T07:54:07.782Z</time></trkpt><trkpt lat="42.907975" lon="12.2159"><ele>481.59999999999997</ele><time>2026-04-19T07:54:08.782Z</time></trkpt><trkpt lat="42.9080267" lon="12.215805"><ele>479.79999999999995</ele><time>2026-04-19T07:54:09.782Z</time></trkpt><trkpt lat="42.9080917" lon="12.2157217"><ele>478.0</ele><time>2026-04-19T07:54:10.783Z</time></trkpt><trkpt lat="42.9081767" lon="12.21564"><ele>476.79999999999995</ele><time>2026-04-19T07:54:11.782Z</time></trkpt><trkpt lat="42.9082717" lon="12.2155567"><ele>475.59999999999997</ele><time>2026-04-19T07:54:12.78Z</time></trkpt><trkpt lat="42.908365" lon="12.2154717"><ele>474.40000000000003</ele><time>2026-04-19T07:54:13.781Z</time></trkpt><trkpt lat="42.9084567" lon="12.2153883"><ele>473.20000000000005</ele><time>2026-04-19T07:54:14.778Z</time></trkpt><trkpt lat="42.90854" lon="12.215315"><ele>472.0</ele><time>2026-04-19T07:54:15.778Z</time></trkpt><trkpt lat="42.908615" lon="12.2152533"><ele>471.40000000000003</ele><time>2026-04-19T07:54:16.785Z</time></trkpt><trkpt lat="42.9086833" lon="12.2152083"><ele>470.80000000000007</ele><time>2026-04-19T07:54:17.778Z</time></trkpt><trkpt lat="42.9087583" lon="12.2151717"><ele>470.2</ele><time>2026-04-19T07:54:18.778Z</time></trkpt><trkpt lat="42.9088483" lon="12.21514"><ele>469.6</ele><time>2026-04-19T07:54:19.781Z</time></trkpt><trkpt lat="42.908955" lon="12.2151133"><ele>469.0</ele><time>2026-04-19T07:54:20.779Z</time></trkpt><trkpt lat="42.90906" lon="12.215105"><ele>469.00000000000006</ele><time>2026-04-19T07:54:21.78Z</time></trkpt><trkpt lat="42.9091567" lon="12.215105"><ele>469.0</ele><time>2026-04-19T07:54:22.779Z</time></trkpt><trkpt lat="42.90924" lon="12.2151183"><ele>469.0</ele><time>2026-04-19T07:54:23.779Z</time></trkpt><trkpt lat="42.90931" lon="12.2151383"><ele>469.0</ele><time>2026-04-19T07:54:24.778Z</time></trkpt><trkpt lat="42.9093933" lon="12.215255"><ele>469.00000000000006</ele><time>2026-04-19T07:54:26.778Z</time></trkpt><trkpt lat="42.9094383" lon="12.2153317"><ele>469.0</ele><time>2026-04-19T07:54:27.785Z</time></trkpt><trkpt lat="42.9095117" lon="12.2153967"><ele>468.79999999999995</ele><time>2026-04-19T07:54:28.778Z</time></trkpt><trkpt lat="42.9095867" lon="12.2154533"><ele>468.59999999999997</ele><time>2026-04-19T07:54:29.778Z</time></trkpt><trkpt lat="42.9096583" lon="12.2154867"><ele>468.4</ele><time>2026-04-19T07:54:30.778Z</time></trkpt><trkpt lat="42.9097533" lon="12.2154583"><ele>468.2</ele><time>2026-04-19T07:54:32.782Z</time></trkpt><trkpt lat="42.9097967" lon="12.215335"><ele>468.0</ele><time>2026-04-19T07:54:34.785Z</time></trkpt><trkpt lat="42.9098133" lon="12.215195"><ele>468.0</ele><time>2026-04-19T07:54:35.782Z</time></trkpt><trkpt lat="42.90983" lon="12.2150383"><ele>468.0</ele><time>2026-04-19T07:54:36.783Z</time></trkpt><trkpt lat="42.9098333" lon="12.214935"><ele>468.0</ele><time>2026-04-19T07:54:37.783Z</time></trkpt><trkpt lat="42.9098333" lon="12.2148367"><ele>468.0</ele><time>2026-04-19T07:54:38.783Z</time></trkpt><trkpt lat="42.9098467" lon="12.2147383"><ele>468.0</ele><time>2026-04-19T07:54:39.782Z</time></trkpt><trkpt lat="42.9098483" lon="12.21464"><ele>468.0</ele><time>2026-04-19T07:54:40.779Z</time></trkpt><trkpt lat="42.9098783" lon="12.2145367"><ele>467.59999999999997</ele><time>2026-04-19T07:54:41.78Z</time></trkpt><trkpt lat="42.9099367" lon="12.21444"><ele>467.19999999999993</ele><time>2026-04-19T07:54:42.779Z</time></trkpt><trkpt lat="42.9100117" lon="12.21437"><ele>466.8</ele><time>2026-04-19T07:54:43.782Z</time></trkpt><trkpt lat="42.9100917" lon="12.2143033"><ele>466.4</ele><time>2026-04-19T07:54:44.779Z</time></trkpt><trkpt lat="42.9101567" lon="12.21425"><ele>466.0</ele><time>2026-04-19T07:54:45.777Z</time></trkpt><trkpt lat="42.9102683" lon="12.2141717"><ele>466.0</ele><time>2026-04-19T07:54:47.778Z</time></trkpt><trkpt lat="42.9103633" lon="12.214195"><ele>466.0</ele><time>2026-04-19T07:54:49.783Z</time></trkpt><trkpt lat="42.9103967" lon="12.2143117"><ele>466.0</ele><time>2026-04-19T07:54:50.778Z</time></trkpt><trkpt lat="42.9104533" lon="12.214415"><ele>466.0</ele><time>2026-04-19T07:54:51.778Z</time></trkpt><trkpt lat="42.91052" lon="12.2145417"><ele>466.0</ele><time>2026-04-19T07:54:52.777Z</time></trkpt><trkpt lat="42.9105967" lon="12.214685"><ele>466.0</ele><time>2026-04-19T07:54:53.778Z</time></trkpt><trkpt lat="42.9106717" lon="12.21482"><ele>466.0</ele><time>2026-04-19T07:54:54.778Z</time></trkpt><trkpt lat="42.9107333" lon="12.2149567"><ele>466.0</ele><time>2026-04-19T07:54:55.779Z</time></trkpt><trkpt lat="42.91078" lon="12.2150867"><ele>466.0</ele><time>2026-04-19T07:54:56.78Z</time></trkpt><trkpt lat="42.91081" lon="12.2152183"><ele>466.0</ele><time>2026-04-19T07:54:57.778Z</time></trkpt><trkpt lat="42.910805" lon="12.215385"><ele>468.0</ele><time>2026-04-19T07:54:58.779Z</time></trkpt><trkpt lat="42.9107833" lon="12.215555"><ele>470.0</ele><time>2026-04-19T07:54:59.779Z</time></trkpt><trkpt lat="42.91074" lon="12.2157167"><ele>472.0</ele><time>2026-04-19T07:55:00.779Z</time></trkpt><trkpt lat="42.9106767" lon="12.2158667"><ele>474.0</ele><time>2026-04-19T07:55:01.782Z</time></trkpt><trkpt lat="42.9106067" lon="12.2160017"><ele>475.79999999999995</ele><time>2026-04-19T07:55:02.78Z</time></trkpt><trkpt lat="42.9105383" lon="12.2161133"><ele>477.59999999999997</ele><time>2026-04-19T07:55:03.788Z</time></trkpt><trkpt lat="42.91048" lon="12.21622"><ele>479.4</ele><time>2026-04-19T07:55:04.781Z</time></trkpt><trkpt lat="42.91044" lon="12.21634"><ele>481.2</ele><time>2026-04-19T07:55:05.783Z</time></trkpt><trkpt lat="42.9104183" lon="12.2164567"><ele>483.0</ele><time>2026-04-19T07:55:06.782Z</time></trkpt><trkpt lat="42.9104133" lon="12.216555"><ele>484.1666666666667</ele><time>2026-04-19T07:55:07.782Z</time></trkpt><trkpt lat="42.9104917" lon="12.2166133"><ele>485.33333333333337</ele><time>2026-04-19T07:55:09.779Z</time></trkpt><trkpt lat="42.910565" lon="12.216605"><ele>486.5</ele><time>2026-04-19T07:55:10.78Z</time></trkpt><trkpt lat="42.9106383" lon="12.21664"><ele>487.6666666666667</ele><time>2026-04-19T07:55:11.784Z</time></trkpt><trkpt lat="42.9107183" lon="12.2167"><ele>488.83333333333337</ele><time>2026-04-19T07:55:12.78Z</time></trkpt><trkpt lat="42.9107883" lon="12.2167733"><ele>490.0</ele><time>2026-04-19T07:55:13.781Z</time></trkpt><trkpt lat="42.9108433" lon="12.216855"><ele>490.00000000000006</ele><time>2026-04-19T07:55:14.781Z</time></trkpt><trkpt lat="42.9108833" lon="12.2169517"><ele>490.0</ele><time>2026-04-19T07:55:15.778Z</time></trkpt><trkpt lat="42.9109183" lon="12.2170567"><ele>490.0</ele><time>2026-04-19T07:55:16.78Z</time></trkpt><trkpt lat="42.9109533" lon="12.2171617"><ele>490.0</ele><time>2026-04-19T07:55:17.778Z</time></trkpt><trkpt lat="42.9109933" lon="12.2172583"><ele>490.00000000000006</ele><time>2026-04-19T07:55:18.779Z</time></trkpt><trkpt lat="42.91104" lon="12.2173383"><ele>490.0</ele><time>2026-04-19T07:55:19.781Z</time></trkpt><trkpt lat="42.9110983" lon="12.2174017"><ele>490.7142857142857</ele><time>2026-04-19T07:55:20.782Z</time></trkpt><trkpt lat="42.911155" lon="12.217455"><ele>491.42857142857144</ele><time>2026-04-19T07:55:21.779Z</time></trkpt><trkpt lat="42.9112167" lon="12.21751"><ele>492.1428571428571</ele><time>2026-04-19T07:55:22.784Z</time></trkpt><trkpt lat="42.9112733" lon="12.2175783"><ele>492.85714285714283</ele><time>2026-04-19T07:55:23.781Z</time></trkpt><trkpt lat="42.9113167" lon="12.2176567"><ele>493.57142857142856</ele><time>2026-04-19T07:55:24.781Z</time></trkpt><trkpt lat="42.9113517" lon="12.217755"><ele>494.2857142857142</ele><time>2026-04-19T07:55:25.781Z</time></trkpt><trkpt lat="42.9113833" lon="12.2178467"><ele>494.99999999999994</ele><time>2026-04-19T07:55:26.781Z</time></trkpt><trkpt lat="42.9114183" lon="12.217935"><ele>495.0</ele><time>2026-04-19T07:55:27.779Z</time></trkpt><trkpt lat="42.9114567" lon="12.21803"><ele>495.0</ele><time>2026-04-19T07:55:28.78Z</time></trkpt><trkpt lat="42.9115017" lon="12.2181317"><ele>495.0</ele><time>2026-04-19T07:55:29.782Z</time></trkpt><trkpt lat="42.9115417" lon="12.2182333"><ele>495.0</ele><time>2026-04-19T07:55:30.78Z</time></trkpt><trkpt lat="42.911575" lon="12.2183233"><ele>495.0</ele><time>2026-04-19T07:55:31.783Z</time></trkpt><trkpt lat="42.9116117" lon="12.2184067"><ele>495.0</ele><time>2026-04-19T07:55:32.781Z</time></trkpt><trkpt lat="42.9116517" lon="12.218475"><ele>497.6</ele><time>2026-04-19T07:55:33.781Z</time></trkpt><trkpt lat="42.9117417" lon="12.2185683"><ele>500.2</ele><time>2026-04-19T07:55:35.78Z</time></trkpt><trkpt lat="42.9118217" lon="12.2185667"><ele>502.79999999999995</ele><time>2026-04-19T07:55:37.78Z</time></trkpt><trkpt lat="42.9119017" lon="12.2184783"><ele>505.4</ele><time>2026-04-19T07:55:39.779Z</time></trkpt><trkpt lat="42.9119583" lon="12.218345"><ele>508.0</ele><time>2026-04-19T07:55:41.779Z</time></trkpt><trkpt lat="42.9119783" lon="12.2182467"><ele>508.00000000000006</ele><time>2026-04-19T07:55:42.78Z</time></trkpt><trkpt lat="42.9119933" lon="12.218155"><ele>508.0</ele><time>2026-04-19T07:55:43.781Z</time></trkpt><trkpt lat="42.9120467" lon="12.2180283"><ele>508.0</ele><time>2026-04-19T07:55:45.779Z</time></trkpt><trkpt lat="42.91214" lon="12.217985"><ele>508.0</ele><time>2026-04-19T07:55:47.779Z</time></trkpt><trkpt lat="42.9122333" lon="12.2180583"><ele>508.00000000000006</ele><time>2026-04-19T07:55:49.784Z</time></trkpt><trkpt lat="42.912265" lon="12.2181333"><ele>508.0</ele><time>2026-04-19T07:55:50.778Z</time></trkpt><trkpt lat="42.91228" lon="12.21825"><ele>508.0</ele><time>2026-04-19T07:55:51.78Z</time></trkpt><trkpt lat="42.9122967" lon="12.218375"><ele>507.99999999999994</ele><time>2026-04-19T07:55:52.777Z</time></trkpt><trkpt lat="42.9123267" lon="12.21849"><ele>507.99999999999994</ele><time>2026-04-19T07:55:53.779Z</time></trkpt><trkpt lat="42.9123733" lon="12.2186"><ele>508.0</ele><time>2026-04-19T07:55:54.786Z</time></trkpt><trkpt lat="42.91243" lon="12.2187017"><ele>508.0</ele><time>2026-04-19T07:55:55.778Z</time></trkpt><trkpt lat="42.9124917" lon="12.2187983"><ele>508.0</ele><time>2026-04-19T07:55:56.778Z</time></trkpt><trkpt lat="42.9125533" lon="12.2188933"><ele>507.99999999999994</ele><time>2026-04-19T07:55:57.779Z</time></trkpt><trkpt lat="42.912605" lon="12.21899"><ele>507.99999999999994</ele><time>2026-04-19T07:55:58.781Z</time></trkpt><trkpt lat="42.9126617" lon="12.21909"><ele>508.0</ele><time>2026-04-19T07:55:59.788Z</time></trkpt><trkpt lat="42.9127267" lon="12.21918"><ele>508.0</ele><time>2026-04-19T07:56:00.781Z</time></trkpt><trkpt lat="42.9128" lon="12.2192617"><ele>509.83333333333337</ele><time>2026-04-19T07:56:01.78Z</time></trkpt><trkpt lat="42.9128733" lon="12.2193417"><ele>511.6666666666667</ele><time>2026-04-19T07:56:02.78Z</time></trkpt><trkpt lat="42.9129417" lon="12.2194267"><ele>513.5</ele><time>2026-04-19T07:56:03.779Z</time></trkpt><trkpt lat="42.9130033" lon="12.2195183"><ele>515.3333333333334</ele><time>2026-04-19T07:56:04.781Z</time></trkpt><trkpt lat="42.9130583" lon="12.219605"><ele>517.1666666666666</ele><time>2026-04-19T07:56:05.782Z</time></trkpt><trkpt lat="42.9131" lon="12.21968"><ele>519.0</ele><time>2026-04-19T07:56:06.786Z</time></trkpt><trkpt lat="42.913145" lon="12.21976"><ele>519.4</ele><time>2026-04-19T07:56:07.779Z</time></trkpt><trkpt lat="42.9131933" lon="12.2198617"><ele>519.8</ele><time>2026-04-19T07:56:08.78Z</time></trkpt><trkpt lat="42.9132467" lon="12.2199717"><ele>520.2</ele><time>2026-04-19T07:56:09.779Z</time></trkpt><trkpt lat="42.9133133" lon="12.220075"><ele>520.6</ele><time>2026-04-19T07:56:10.779Z</time></trkpt><trkpt lat="42.9133783" lon="12.2201683"><ele>521.0</ele><time>2026-04-19T07:56:11.784Z</time></trkpt><trkpt lat="42.9134333" lon="12.2202667"><ele>521.0</ele><time>2026-04-19T07:56:12.778Z</time></trkpt><trkpt lat="42.913475" lon="12.22036"><ele>521.0</ele><time>2026-04-19T07:56:13.78Z</time></trkpt><trkpt lat="42.9135117" lon="12.220455"><ele>521.0</ele><time>2026-04-19T07:56:14.778Z</time></trkpt><trkpt lat="42.9135333" lon="12.2205567"><ele>521.0</ele><time>2026-04-19T07:56:15.78Z</time></trkpt><trkpt lat="42.91354" lon="12.220665"><ele>521.0</ele><time>2026-04-19T07:56:16.778Z</time></trkpt><trkpt lat="42.9135317" lon="12.2207733"><ele>521.0</ele><time>2026-04-19T07:56:17.783Z</time></trkpt><trkpt lat="42.9135167" lon="12.22089"><ele>524.1666666666666</ele><time>2026-04-19T07:56:18.782Z</time></trkpt><trkpt lat="42.9135033" lon="12.221005"><ele>527.3333333333333</ele><time>2026-04-19T07:56:19.778Z</time></trkpt><trkpt lat="42.9134917" lon="12.2211133"><ele>530.5</ele><time>2026-04-19T07:56:20.777Z</time></trkpt><trkpt lat="42.9134783" lon="12.2212033"><ele>533.6666666666666</ele><time>2026-04-19T07:56:21.78Z</time></trkpt><trkpt lat="42.9135033" lon="12.2212917"><ele>536.8333333333334</ele><time>2026-04-19T07:56:22.78Z</time></trkpt><trkpt lat="42.91355" lon="12.2213717"><ele>540.0</ele><time>2026-04-19T07:56:23.78Z</time></trkpt><trkpt lat="42.9136133" lon="12.2214483"><ele>544.0</ele><time>2026-04-19T07:56:24.779Z</time></trkpt><trkpt lat="42.9136667" lon="12.2215167"><ele>548.0</ele><time>2026-04-19T07:56:25.779Z</time></trkpt><trkpt lat="42.9137367" lon="12.221615"><ele>552.0</ele><time>2026-04-19T07:56:26.779Z</time></trkpt><trkpt lat="42.91381" lon="12.221705"><ele>556.0</ele><time>2026-04-19T07:56:27.778Z</time></trkpt><trkpt lat="42.9138933" lon="12.2217733"><ele>560.0</ele><time>2026-04-19T07:56:28.785Z</time></trkpt><trkpt lat="42.913965" lon="12.2218267"><ele>560.0</ele><time>2026-04-19T07:56:29.778Z</time></trkpt><trkpt lat="42.9140383" lon="12.2218633"><ele>560.0</ele><time>2026-04-19T07:56:30.78Z</time></trkpt><trkpt lat="42.9141117" lon="12.2218883"><ele>560.0</ele><time>2026-04-19T07:56:31.778Z</time></trkpt><trkpt lat="42.9141833" lon="12.2219083"><ele>560.0</ele><time>2026-04-19T07:56:32.781Z</time></trkpt><trkpt lat="42.9142667" lon="12.2219083"><ele>560.0</ele><time>2026-04-19T07:56:33.778Z</time></trkpt><trkpt lat="42.914355" lon="12.2219083"><ele>560.0</ele><time>2026-04-19T07:56:34.78Z</time></trkpt><trkpt lat="42.9144467" lon="12.2219167"><ele>558.8</ele><time>2026-04-19T07:56:35.78Z</time></trkpt><trkpt lat="42.9145433" lon="12.221935"><ele>557.6</ele><time>2026-04-19T07:56:36.782Z</time></trkpt><trkpt lat="42.9146283" lon="12.22196"><ele>556.4</ele><time>2026-04-19T07:56:37.779Z</time></trkpt><trkpt lat="42.9147183" lon="12.2219767"><ele>555.2</ele><time>2026-04-19T07:56:38.785Z</time></trkpt><trkpt lat="42.9148083" lon="12.221975"><ele>554.0</ele><time>2026-04-19T07:56:39.779Z</time></trkpt><trkpt lat="42.9149" lon="12.2219667"><ele>554.0</ele><time>2026-04-19T07:56:40.781Z</time></trkpt><trkpt lat="42.914985" lon="12.221975"><ele>554.0</ele><time>2026-04-19T07:56:41.78Z</time></trkpt><trkpt lat="42.9150717" lon="12.2219883"><ele>554.0</ele><time>2026-04-19T07:56:42.78Z</time></trkpt><trkpt lat="42.9151483" lon="12.2219883"><ele>554.0</ele><time>2026-04-19T07:56:43.786Z</time></trkpt><trkpt lat="42.9152083" lon="12.2219583"><ele>554.0</ele><time>2026-04-19T07:56:44.779Z</time></trkpt><trkpt lat="42.91526" lon="12.2219083"><ele>554.0</ele><time>2026-04-19T07:56:45.778Z</time></trkpt><trkpt lat="42.9153117" lon="12.221845"><ele>554.0</ele><time>2026-04-19T07:56:46.778Z</time></trkpt><trkpt lat="42.9153667" lon="12.221775"><ele>552.2</ele><time>2026-04-19T07:56:47.779Z</time></trkpt><trkpt lat="42.9154383" lon="12.2216867"><ele>550.4</ele><time>2026-04-19T07:56:48.778Z</time></trkpt><trkpt lat="42.9155217" lon="12.2215817"><ele>548.6</ele><time>2026-04-19T07:56:49.778Z</time></trkpt><trkpt lat="42.9156067" lon="12.2214767"><ele>546.8</ele><time>2026-04-19T07:56:50.786Z</time></trkpt><trkpt lat="42.9156933" lon="12.221375"><ele>545.0</ele><time>2026-04-19T07:56:51.779Z</time></trkpt><trkpt lat="42.91577" lon="12.221295"><ele>544.3333333333333</ele><time>2026-04-19T07:56:52.778Z</time></trkpt><trkpt lat="42.9158383" lon="12.2212467"><ele>543.6666666666666</ele><time>2026-04-19T07:56:53.778Z</time></trkpt><trkpt lat="42.9159" lon="12.221225"><ele>543.0</ele><time>2026-04-19T07:56:54.78Z</time></trkpt><trkpt lat="42.916015" lon="12.221265"><ele>542.3333333333334</ele><time>2026-04-19T07:56:56.78Z</time></trkpt><trkpt lat="42.9160633" lon="12.221335"><ele>541.6666666666667</ele><time>2026-04-19T07:56:57.779Z</time></trkpt><trkpt lat="42.9161133" lon="12.2214067"><ele>541.0</ele><time>2026-04-19T07:56:58.779Z</time></trkpt><trkpt lat="42.9161717" lon="12.2214617"><ele>540.6</ele><time>2026-04-19T07:56:59.78Z</time></trkpt><trkpt lat="42.9162517" lon="12.2214917"><ele>540.2</ele><time>2026-04-19T07:57:00.779Z</time></trkpt><trkpt lat="42.9163617" lon="12.2214883"><ele>539.8</ele><time>2026-04-19T07:57:01.78Z</time></trkpt><trkpt lat="42.9164817" lon="12.2214817"><ele>539.4</ele><time>2026-04-19T07:57:02.78Z</time></trkpt><trkpt lat="42.9165983" lon="12.2214817"><ele>539.0</ele><time>2026-04-19T07:57:03.779Z</time></trkpt><trkpt lat="42.9167167" lon="12.2215"><ele>538.75</ele><time>2026-04-19T07:57:04.78Z</time></trkpt><trkpt lat="42.9168483" lon="12.221525"><ele>538.5</ele><time>2026-04-19T07:57:05.783Z</time></trkpt><trkpt lat="42.916985" lon="12.2215483"><ele>538.25</ele><time>2026-04-19T07:57:06.787Z</time></trkpt><trkpt lat="42.9171317" lon="12.2215517"><ele>538.0</ele><time>2026-04-19T07:57:07.779Z</time></trkpt><trkpt lat="42.9172767" lon="12.2215483"><ele>538.0</ele><time>2026-04-19T07:57:08.78Z</time></trkpt><trkpt lat="42.91741" lon="12.2215483"><ele>538.0</ele><time>2026-04-19T07:57:09.781Z</time></trkpt><trkpt lat="42.9175333" lon="12.221555"><ele>538.0</ele><time>2026-04-19T07:57:10.78Z</time></trkpt><trkpt lat="42.9176467" lon="12.2215683"><ele>538.0</ele><time>2026-04-19T07:57:11.781Z</time></trkpt><trkpt lat="42.9177567" lon="12.221585"><ele>535.6666666666667</ele><time>2026-04-19T07:57:12.779Z</time></trkpt><trkpt lat="42.91785" lon="12.221605"><ele>533.3333333333334</ele><time>2026-04-19T07:57:13.779Z</time></trkpt><trkpt lat="42.9179383" lon="12.2216133"><ele>531.0</ele><time>2026-04-19T07:57:14.778Z</time></trkpt><trkpt lat="42.91802" lon="12.2216067"><ele>528.6666666666666</ele><time>2026-04-19T07:57:15.787Z</time></trkpt><trkpt lat="42.9180983" lon="12.2215983"><ele>526.3333333333333</ele><time>2026-04-19T07:57:16.778Z</time></trkpt><trkpt lat="42.9181767" lon="12.2216"><ele>524.0</ele><time>2026-04-19T07:57:17.778Z</time></trkpt><trkpt lat="42.918255" lon="12.2216117"><ele>524.0</ele><time>2026-04-19T07:57:18.778Z</time></trkpt><trkpt lat="42.9183183" lon="12.22162"><ele>524.0</ele><time>2026-04-19T07:57:19.778Z</time></trkpt><trkpt lat="42.9184183" lon="12.22157"><ele>524.0</ele><time>2026-04-19T07:57:21.779Z</time></trkpt><trkpt lat="42.9184783" lon="12.221445"><ele>524.0</ele><time>2026-04-19T07:57:23.781Z</time></trkpt><trkpt lat="42.918485" lon="12.2213583"><ele>524.0</ele><time>2026-04-19T07:57:24.78Z</time></trkpt><trkpt lat="42.9184833" lon="12.2212633"><ele>524.0</ele><time>2026-04-19T07:57:25.78Z</time></trkpt><trkpt lat="42.9184683" lon="12.2211433"><ele>521.2</ele><time>2026-04-19T07:57:26.778Z</time></trkpt><trkpt lat="42.9184517" lon="12.2210133"><ele>518.4</ele><time>2026-04-19T07:57:27.785Z</time></trkpt><trkpt lat="42.91844" lon="12.2208817"><ele>515.6</ele><time>2026-04-19T07:57:28.779Z</time></trkpt><trkpt lat="42.9184283" lon="12.2207467"><ele>512.8</ele><time>2026-04-19T07:57:29.779Z</time></trkpt><trkpt lat="42.9184183" lon="12.2206117"><ele>510.0</ele><time>2026-04-19T07:57:30.781Z</time></trkpt><trkpt lat="42.9184167" lon="12.2204817"><ele>510.0</ele><time>2026-04-19T07:57:31.78Z</time></trkpt><trkpt lat="42.918425" lon="12.2203767"><ele>510.0</ele><time>2026-04-19T07:57:32.781Z</time></trkpt><trkpt lat="42.9184383" lon="12.2202917"><ele>510.0</ele><time>2026-04-19T07:57:33.78Z</time></trkpt><trkpt lat="42.918525" lon="12.2201883"><ele>510.0</ele><time>2026-04-19T07:57:35.78Z</time></trkpt><trkpt lat="42.9186083" lon="12.2201717"><ele>510.0</ele><time>2026-04-19T07:57:36.778Z</time></trkpt><trkpt lat="42.9187017" lon="12.2201817"><ele>510.0</ele><time>2026-04-19T07:57:37.785Z</time></trkpt><trkpt lat="42.9187867" lon="12.2201933"><ele>510.0</ele><time>2026-04-19T07:57:38.78Z</time></trkpt><trkpt lat="42.9188617" lon="12.2201833"><ele>510.0</ele><time>2026-04-19T07:57:39.779Z</time></trkpt><trkpt lat="42.91893" lon="12.22015"><ele>510.0</ele><time>2026-04-19T07:57:40.779Z</time></trkpt><trkpt lat="42.919" lon="12.2200933"><ele>510.0</ele><time>2026-04-19T07:57:41.778Z</time></trkpt><trkpt lat="42.9190733" lon="12.220035"><ele>510.0</ele><time>2026-04-19T07:57:42.787Z</time></trkpt><trkpt lat="42.919155" lon="12.2199767"><ele>510.0</ele><time>2026-04-19T07:57:43.779Z</time></trkpt><trkpt lat="42.9192433" lon="12.2199333"><ele>510.0</ele><time>2026-04-19T07:57:44.779Z</time></trkpt><trkpt lat="42.9193683" lon="12.2199383"><ele>510.0</ele><time>2026-04-19T07:57:45.777Z</time></trkpt><trkpt lat="42.9195033" lon="12.2199533"><ele>510.0</ele><time>2026-04-19T07:57:46.779Z</time></trkpt><trkpt lat="42.9196317" lon="12.2199683"><ele>510.0</ele><time>2026-04-19T07:57:47.779Z</time></trkpt><trkpt lat="42.9197517" lon="12.2199617"><ele>510.0</ele><time>2026-04-19T07:57:48.78Z</time></trkpt><trkpt lat="42.9198533" lon="12.2199317"><ele>510.0</ele><time>2026-04-19T07:57:49.779Z</time></trkpt><trkpt lat="42.9199517" lon="12.2198817"><ele>510.0</ele><time>2026-04-19T07:57:50.778Z</time></trkpt><trkpt lat="42.920045" lon="12.2198183"><ele>510.0</ele><time>2026-04-19T07:57:51.78Z</time></trkpt><trkpt lat="42.9201383" lon="12.2197567"><ele>510.0</ele><time>2026-04-19T07:57:52.785Z</time></trkpt><trkpt lat="42.9202267" lon="12.2197033"><ele>508.0</ele><time>2026-04-19T07:57:53.783Z</time></trkpt><trkpt lat="42.9203017" lon="12.2196667"><ele>506.0</ele><time>2026-04-19T07:57:54.78Z</time></trkpt><trkpt lat="42.9203683" lon="12.2196467"><ele>504.0</ele><time>2026-04-19T07:57:55.78Z</time></trkpt><trkpt lat="42.9204317" lon="12.219655"><ele>502.0</ele><time>2026-04-19T07:57:56.78Z</time></trkpt><trkpt lat="42.9205083" lon="12.2197117"><ele>500.0</ele><time>2026-04-19T07:57:57.778Z</time></trkpt><trkpt lat="42.9205883" lon="12.2197967"><ele>498.0</ele><time>2026-04-19T07:57:58.778Z</time></trkpt><trkpt lat="42.9206767" lon="12.219865"><ele>498.0</ele><time>2026-04-19T07:57:59.779Z</time></trkpt><trkpt lat="42.92077" lon="12.2199317"><ele>497.99999999999994</ele><time>2026-04-19T07:58:00.779Z</time></trkpt><trkpt lat="42.920865" lon="12.2200033"><ele>497.99999999999994</ele><time>2026-04-19T07:58:01.779Z</time></trkpt><trkpt lat="42.9209517" lon="12.2200733"><ele>498.0</ele><time>2026-04-19T07:58:02.779Z</time></trkpt><trkpt lat="42.92103" lon="12.220145"><ele>498.0</ele><time>2026-04-19T07:58:03.787Z</time></trkpt><trkpt lat="42.921105" lon="12.2202133"><ele>494.79999999999995</ele><time>2026-04-19T07:58:04.779Z</time></trkpt><trkpt lat="42.9211867" lon="12.2202817"><ele>491.59999999999997</ele><time>2026-04-19T07:58:05.779Z</time></trkpt><trkpt lat="42.9212817" lon="12.2203417"><ele>488.40000000000003</ele><time>2026-04-19T07:58:06.78Z</time></trkpt><trkpt lat="42.9213867" lon="12.2203867"><ele>485.20000000000005</ele><time>2026-04-19T07:58:07.78Z</time></trkpt><trkpt lat="42.9214983" lon="12.2204217"><ele>482.0</ele><time>2026-04-19T07:58:08.78Z</time></trkpt><trkpt lat="42.921605" lon="12.2204483"><ele>482.0</ele><time>2026-04-19T07:58:09.786Z</time></trkpt><trkpt lat="42.921715" lon="12.2204667"><ele>482.00000000000006</ele><time>2026-04-19T07:58:10.783Z</time></trkpt><trkpt lat="42.9218283" lon="12.220485"><ele>482.00000000000006</ele><time>2026-04-19T07:58:11.779Z</time></trkpt><trkpt lat="42.9219383" lon="12.22049"><ele>482.0</ele><time>2026-04-19T07:58:12.78Z</time></trkpt><trkpt lat="42.9220367" lon="12.2204833"><ele>482.0</ele><time>2026-04-19T07:58:13.783Z</time></trkpt><trkpt lat="42.9221233" lon="12.2204783"><ele>478.8333333333333</ele><time>2026-04-19T07:58:14.779Z</time></trkpt><trkpt lat="42.922205" lon="12.220475"><ele>475.66666666666663</ele><time>2026-04-19T07:58:15.784Z</time></trkpt><trkpt lat="42.9222733" lon="12.2204767"><ele>472.5</ele><time>2026-04-19T07:58:16.778Z</time></trkpt><trkpt lat="42.9223717" lon="12.2204833"><ele>469.33333333333337</ele><time>2026-04-19T07:58:18.777Z</time></trkpt><trkpt lat="42.9224233" lon="12.2205433"><ele>466.1666666666667</ele><time>2026-04-19T07:58:20.778Z</time></trkpt><trkpt lat="42.92239" lon="12.2206717"><ele>463.0</ele><time>2026-04-19T07:58:22.778Z</time></trkpt><trkpt lat="42.922335" lon="12.22076"><ele>463.0</ele><time>2026-04-19T07:58:23.779Z</time></trkpt><trkpt lat="42.922265" lon="12.2208617"><ele>462.99999999999994</ele><time>2026-04-19T07:58:24.783Z</time></trkpt><trkpt lat="42.9221933" lon="12.220975"><ele>462.99999999999994</ele><time>2026-04-19T07:58:25.78Z</time></trkpt><trkpt lat="42.9221217" lon="12.2210967"><ele>463.0</ele><time>2026-04-19T07:58:26.781Z</time></trkpt><trkpt lat="42.92205" lon="12.2212183"><ele>463.0</ele><time>2026-04-19T07:58:27.779Z</time></trkpt><trkpt lat="42.921985" lon="12.2213433"><ele>459.0</ele><time>2026-04-19T07:58:28.779Z</time></trkpt><trkpt lat="42.9219583" lon="12.221495"><ele>454.99999999999994</ele><time>2026-04-19T07:58:29.78Z</time></trkpt><trkpt lat="42.9219467" lon="12.2216367"><ele>450.99999999999994</ele><time>2026-04-19T07:58:30.78Z</time></trkpt><trkpt lat="42.9219483" lon="12.2217817"><ele>447.0</ele><time>2026-04-19T07:58:31.782Z</time></trkpt><trkpt lat="42.9219533" lon="12.2219367"><ele>443.0</ele><time>2026-04-19T07:58:32.781Z</time></trkpt><trkpt lat="42.92195" lon="12.2220917"><ele>443.0</ele><time>2026-04-19T07:58:33.78Z</time></trkpt><trkpt lat="42.9219417" lon="12.222255"><ele>443.0</ele><time>2026-04-19T07:58:34.781Z</time></trkpt><trkpt lat="42.9219517" lon="12.222435"><ele>443.0</ele><time>2026-04-19T07:58:35.781Z</time></trkpt><trkpt lat="42.9219667" lon="12.22262"><ele>443.0</ele><time>2026-04-19T07:58:36.781Z</time></trkpt><trkpt lat="42.9219867" lon="12.2227933"><ele>441.3333333333333</ele><time>2026-04-19T07:58:37.779Z</time></trkpt><trkpt lat="42.9220033" lon="12.2229383"><ele>439.66666666666663</ele><time>2026-04-19T07:58:38.779Z</time></trkpt><trkpt lat="42.922015" lon="12.2230567"><ele>438.0</ele><time>2026-04-19T07:58:39.779Z</time></trkpt><trkpt lat="42.922045" lon="12.2231617"><ele>436.33333333333337</ele><time>2026-04-19T07:58:40.78Z</time></trkpt><trkpt lat="42.9220717" lon="12.2232433"><ele>434.6666666666667</ele><time>2026-04-19T07:58:41.779Z</time></trkpt><trkpt lat="42.9221033" lon="12.22332"><ele>433.0</ele><time>2026-04-19T07:58:42.777Z</time></trkpt><trkpt lat="42.922145" lon="12.2234767"><ele>430.79999999999995</ele><time>2026-04-19T07:58:44.78Z</time></trkpt><trkpt lat="42.922135" lon="12.2235817"><ele>428.59999999999997</ele><time>2026-04-19T07:58:45.779Z</time></trkpt><trkpt lat="42.9221117" lon="12.2237033"><ele>426.4</ele><time>2026-04-19T07:58:46.781Z</time></trkpt><trkpt lat="42.92209" lon="12.2238433"><ele>424.20000000000005</ele><time>2026-04-19T07:58:47.778Z</time></trkpt><trkpt lat="42.92207" lon="12.2239917"><ele>422.0</ele><time>2026-04-19T07:58:48.784Z</time></trkpt><trkpt lat="42.92205" lon="12.224115"><ele>420.40000000000003</ele><time>2026-04-19T07:58:49.778Z</time></trkpt><trkpt lat="42.922035" lon="12.2242"><ele>418.8</ele><time>2026-04-19T07:58:50.779Z</time></trkpt><trkpt lat="42.92202" lon="12.2242983"><ele>417.2</ele><time>2026-04-19T07:58:52.778Z</time></trkpt><trkpt lat="42.92194" lon="12.224305"><ele>415.6</ele><time>2026-04-19T07:58:55.785Z</time></trkpt><trkpt lat="42.92184" lon="12.22417"><ele>414.0</ele><time>2026-04-19T07:58:57.778Z</time></trkpt><trkpt lat="42.921775" lon="12.2240783"><ele>414.2</ele><time>2026-04-19T07:58:58.779Z</time></trkpt><trkpt lat="42.9217133" lon="12.2239817"><ele>414.4</ele><time>2026-04-19T07:58:59.777Z</time></trkpt><trkpt lat="42.921655" lon="12.223865"><ele>414.6</ele><time>2026-04-19T07:59:00.785Z</time></trkpt><trkpt lat="42.9215967" lon="12.2237417"><ele>414.8</ele><time>2026-04-19T07:59:01.778Z</time></trkpt><trkpt lat="42.9215317" lon="12.2236233"><ele>415.0</ele><time>2026-04-19T07:59:02.778Z</time></trkpt><trkpt lat="42.92146" lon="12.22351"><ele>417.4</ele><time>2026-04-19T07:59:03.779Z</time></trkpt><trkpt lat="42.9213917" lon="12.2234017"><ele>419.8</ele><time>2026-04-19T07:59:04.778Z</time></trkpt><trkpt lat="42.9213333" lon="12.2232933"><ele>422.20000000000005</ele><time>2026-04-19T07:59:05.779Z</time></trkpt><trkpt lat="42.9212833" lon="12.2232033"><ele>424.6</ele><time>2026-04-19T07:59:06.779Z</time></trkpt><trkpt lat="42.92124" lon="12.2231383"><ele>427.0</ele><time>2026-04-19T07:59:07.78Z</time></trkpt><trkpt lat="42.9211467" lon="12.22308"><ele>429.33333333333337</ele><time>2026-04-19T07:59:09.779Z</time></trkpt><trkpt lat="42.9210783" lon="12.2230733"><ele>431.6666666666667</ele><time>2026-04-19T07:59:10.779Z</time></trkpt><trkpt lat="42.920995" lon="12.22306"><ele>434.0</ele><time>2026-04-19T07:59:11.787Z</time></trkpt><trkpt lat="42.9208983" lon="12.223055"><ele>436.33333333333337</ele><time>2026-04-19T07:59:12.779Z</time></trkpt><trkpt lat="42.9208017" lon="12.223045"><ele>438.6666666666667</ele><time>2026-04-19T07:59:13.779Z</time></trkpt><trkpt lat="42.9207133" lon="12.2230667"><ele>441.0</ele><time>2026-04-19T07:59:14.779Z</time></trkpt><trkpt lat="42.9206267" lon="12.22313"><ele>438.8333333333333</ele><time>2026-04-19T07:59:15.779Z</time></trkpt><trkpt lat="42.9205467" lon="12.2231833"><ele>436.66666666666663</ele><time>2026-04-19T07:59:16.778Z</time></trkpt><trkpt lat="42.92049" lon="12.2232683"><ele>434.5</ele><time>2026-04-19T07:59:17.778Z</time></trkpt><trkpt lat="42.9204367" lon="12.2233433"><ele>432.3333333333333</ele><time>2026-04-19T07:59:18.779Z</time></trkpt><trkpt lat="42.92039" lon="12.2234717"><ele>430.16666666666663</ele><time>2026-04-19T07:59:20.782Z</time></trkpt><trkpt lat="42.9203733" lon="12.22356"><ele>428.0</ele><time>2026-04-19T07:59:21.778Z</time></trkpt><trkpt lat="42.92042" lon="12.223755"><ele>428.0</ele><time>2026-04-19T07:59:22.778Z</time></trkpt><trkpt lat="42.9204383" lon="12.2238933"><ele>427.99999999999994</ele><time>2026-04-19T07:59:23.779Z</time></trkpt><trkpt lat="42.920465" lon="12.2240117"><ele>427.99999999999994</ele><time>2026-04-19T07:59:24.778Z</time></trkpt><trkpt lat="42.920475" lon="12.224125"><ele>428.0</ele><time>2026-04-19T07:59:25.778Z</time></trkpt><trkpt lat="42.9204883" lon="12.2242683"><ele>428.0</ele><time>2026-04-19T07:59:26.777Z</time></trkpt><trkpt lat="42.920465" lon="12.22442"><ele>427.0</ele><time>2026-04-19T07:59:27.78Z</time></trkpt><trkpt lat="42.9205017" lon="12.2246033"><ele>426.0</ele><time>2026-04-19T07:59:28.778Z</time></trkpt><trkpt lat="42.92049" lon="12.2247567"><ele>425.0</ele><time>2026-04-19T07:59:29.778Z</time></trkpt><trkpt lat="42.92048" lon="12.224915"><ele>424.0</ele><time>2026-04-19T07:59:30.777Z</time></trkpt><trkpt lat="42.9204633" lon="12.2250517"><ele>422.50000000000006</ele><time>2026-04-19T07:59:31.778Z</time></trkpt><trkpt lat="42.9204267" lon="12.2251517"><ele>421.0</ele><time>2026-04-19T07:59:32.78Z</time></trkpt><trkpt lat="42.9203933" lon="12.2252667"><ele>419.5</ele><time>2026-04-19T07:59:33.779Z</time></trkpt><trkpt lat="42.9203483" lon="12.225355"><ele>418.0</ele><time>2026-04-19T07:59:34.778Z</time></trkpt><trkpt lat="42.9202567" lon="12.2253733"><ele>416.50000000000006</ele><time>2026-04-19T07:59:35.778Z</time></trkpt><trkpt lat="42.9201617" lon="12.2253883"><ele>415.0</ele><time>2026-04-19T07:59:36.779Z</time></trkpt><trkpt lat="42.920065" lon="12.2253867"><ele>419.83333333333337</ele><time>2026-04-19T07:59:37.78Z</time></trkpt><trkpt lat="42.9199667" lon="12.2253883"><ele>424.6666666666667</ele><time>2026-04-19T07:59:38.78Z</time></trkpt><trkpt lat="42.919885" lon="12.2253317"><ele>429.5</ele><time>2026-04-19T07:59:39.779Z</time></trkpt><trkpt lat="42.9198117" lon="12.2252733"><ele>434.33333333333337</ele><time>2026-04-19T07:59:40.782Z</time></trkpt><trkpt lat="42.919745" lon="12.2252183"><ele>439.1666666666667</ele><time>2026-04-19T07:59:41.778Z</time></trkpt><trkpt lat="42.9196833" lon="12.2251633"><ele>444.0</ele><time>2026-04-19T07:59:42.778Z</time></trkpt><trkpt lat="42.91963" lon="12.2250967"><ele>444.0</ele><time>2026-04-19T07:59:43.779Z</time></trkpt><trkpt lat="42.9195767" lon="12.2250083"><ele>444.0</ele><time>2026-04-19T07:59:44.779Z</time></trkpt><trkpt lat="42.9195133" lon="12.2249017"><ele>444.0</ele><time>2026-04-19T07:59:45.779Z</time></trkpt><trkpt lat="42.9194283" lon="12.2247967"><ele>444.0</ele><time>2026-04-19T07:59:46.778Z</time></trkpt><trkpt lat="42.9193217" lon="12.224695"><ele>444.0</ele><time>2026-04-19T07:59:47.779Z</time></trkpt><trkpt lat="42.9192117" lon="12.224595"><ele>447.2</ele><time>2026-04-19T07:59:48.778Z</time></trkpt><trkpt lat="42.9191167" lon="12.2245033"><ele>450.4</ele><time>2026-04-19T07:59:49.778Z</time></trkpt><trkpt lat="42.9190267" lon="12.2244117"><ele>453.6</ele><time>2026-04-19T07:59:50.779Z</time></trkpt><trkpt lat="42.918945" lon="12.2243283"><ele>456.8</ele><time>2026-04-19T07:59:51.778Z</time></trkpt><trkpt lat="42.918875" lon="12.2242433"><ele>460.0</ele><time>2026-04-19T07:59:52.778Z</time></trkpt><trkpt lat="42.91881" lon="12.2241617"><ele>460.00000000000006</ele><time>2026-04-19T07:59:53.779Z</time></trkpt><trkpt lat="42.9187567" lon="12.2241"><ele>460.0</ele><time>2026-04-19T07:59:54.778Z</time></trkpt><trkpt lat="42.91866" lon="12.224065"><ele>460.0</ele><time>2026-04-19T07:59:56.784Z</time></trkpt><trkpt lat="42.9185583" lon="12.2240983"><ele>460.0</ele><time>2026-04-19T07:59:58.778Z</time></trkpt><trkpt lat="42.918495" lon="12.2241433"><ele>460.00000000000006</ele><time>2026-04-19T07:59:59.778Z</time></trkpt><trkpt lat="42.91845" lon="12.22424"><ele>460.0</ele><time>2026-04-19T08:00:00.778Z</time></trkpt><trkpt lat="42.9184083" lon="12.2244117"><ele>461.5</ele><time>2026-04-19T08:00:01.779Z</time></trkpt><trkpt lat="42.9183617" lon="12.22463"><ele>463.0</ele><time>2026-04-19T08:00:02.779Z</time></trkpt><trkpt lat="42.9183067" lon="12.2247483"><ele>464.5</ele><time>2026-04-19T08:00:03.779Z</time></trkpt><trkpt lat="42.9182417" lon="12.2248617"><ele>466.0</ele><time>2026-04-19T08:00:04.779Z</time></trkpt><trkpt lat="42.9181817" lon="12.2249383"><ele>461.6</ele><time>2026-04-19T08:00:05.784Z</time></trkpt><trkpt lat="42.9181" lon="12.2249567"><ele>457.20000000000005</ele><time>2026-04-19T08:00:06.78Z</time></trkpt><trkpt lat="42.9179867" lon="12.22494"><ele>452.79999999999995</ele><time>2026-04-19T08:00:07.778Z</time></trkpt><trkpt lat="42.9178883" lon="12.2249483"><ele>448.4</ele><time>2026-04-19T08:00:08.777Z</time></trkpt><trkpt lat="42.917795" lon="12.224935"><ele>444.0</ele><time>2026-04-19T08:00:09.779Z</time></trkpt><trkpt lat="42.917715" lon="12.224915"><ele>444.0</ele><time>2026-04-19T08:00:10.779Z</time></trkpt><trkpt lat="42.9176167" lon="12.2248583"><ele>444.0</ele><time>2026-04-19T08:00:11.782Z</time></trkpt><trkpt lat="42.917505" lon="12.2247817"><ele>444.0</ele><time>2026-04-19T08:00:12.779Z</time></trkpt><trkpt lat="42.9173983" lon="12.2247117"><ele>444.0</ele><time>2026-04-19T08:00:13.781Z</time></trkpt><trkpt lat="42.9173033" lon="12.22465"><ele>449.6</ele><time>2026-04-19T08:00:14.778Z</time></trkpt><trkpt lat="42.9172117" lon="12.2245867"><ele>455.2</ele><time>2026-04-19T08:00:15.778Z</time></trkpt><trkpt lat="42.9171167" lon="12.2245117"><ele>460.80000000000007</ele><time>2026-04-19T08:00:16.78Z</time></trkpt><trkpt lat="42.917025" lon="12.2244333"><ele>466.40000000000003</ele><time>2026-04-19T08:00:17.78Z</time></trkpt><trkpt lat="42.9169367" lon="12.224375"><ele>472.0</ele><time>2026-04-19T08:00:18.779Z</time></trkpt><trkpt lat="42.916855" lon="12.22435"><ele>472.0</ele><time>2026-04-19T08:00:19.785Z</time></trkpt><trkpt lat="42.9167783" lon="12.2243433"><ele>472.00000000000006</ele><time>2026-04-19T08:00:20.78Z</time></trkpt><trkpt lat="42.91669" lon="12.2243933"><ele>472.00000000000006</ele><time>2026-04-19T08:00:22.78Z</time></trkpt><trkpt lat="42.916605" lon="12.2245467"><ele>472.0</ele><time>2026-04-19T08:00:24.779Z</time></trkpt><trkpt lat="42.9165583" lon="12.224665"><ele>472.0</ele><time>2026-04-19T08:00:25.779Z</time></trkpt><trkpt lat="42.9165217" lon="12.2248083"><ele>468.50000000000006</ele><time>2026-04-19T08:00:26.784Z</time></trkpt><trkpt lat="42.9164833" lon="12.22496"><ele>465.0</ele><time>2026-04-19T08:00:27.779Z</time></trkpt><trkpt lat="42.916445" lon="12.225085"><ele>461.5</ele><time>2026-04-19T08:00:28.779Z</time></trkpt><trkpt lat="42.916405" lon="12.2251633"><ele>458.0</ele><time>2026-04-19T08:00:29.78Z</time></trkpt><trkpt lat="42.91635" lon="12.2252267"><ele>454.50000000000006</ele><time>2026-04-19T08:00:30.778Z</time></trkpt><trkpt lat="42.916295" lon="12.2252917"><ele>451.0</ele><time>2026-04-19T08:00:31.78Z</time></trkpt><trkpt lat="42.9162333" lon="12.2253283"><ele>451.0</ele><time>2026-04-19T08:00:32.78Z</time></trkpt><trkpt lat="42.916115" lon="12.2252683"><ele>451.0</ele><time>2026-04-19T08:00:34.778Z</time></trkpt><trkpt lat="42.9160433" lon="12.22521"><ele>451.0</ele><time>2026-04-19T08:00:35.782Z</time></trkpt><trkpt lat="42.91595" lon="12.2251217"><ele>451.0</ele><time>2026-04-19T08:00:36.78Z</time></trkpt><trkpt lat="42.9158617" lon="12.2250483"><ele>451.0</ele><time>2026-04-19T08:00:37.78Z</time></trkpt><trkpt lat="42.9157533" lon="12.224995"><ele>451.20000000000005</ele><time>2026-04-19T08:00:38.778Z</time></trkpt><trkpt lat="42.9156567" lon="12.2249567"><ele>451.40000000000003</ele><time>2026-04-19T08:00:39.782Z</time></trkpt><trkpt lat="42.915565" lon="12.2249333"><ele>451.6</ele><time>2026-04-19T08:00:40.778Z</time></trkpt><trkpt lat="42.9154883" lon="12.224895"><ele>451.8</ele><time>2026-04-19T08:00:41.779Z</time></trkpt><trkpt lat="42.9154033" lon="12.22484"><ele>452.0</ele><time>2026-04-19T08:00:42.781Z</time></trkpt><trkpt lat="42.915325" lon="12.224815"><ele>452.0</ele><time>2026-04-19T08:00:43.78Z</time></trkpt><trkpt lat="42.9152533" lon="12.224805"><ele>452.00000000000006</ele><time>2026-04-19T08:00:44.78Z</time></trkpt><trkpt lat="42.91514" lon="12.2248533"><ele>452.00000000000006</ele><time>2026-04-19T08:00:46.783Z</time></trkpt><trkpt lat="42.9150683" lon="12.2249383"><ele>452.0</ele><time>2026-04-19T08:00:47.779Z</time></trkpt><trkpt lat="42.9149883" lon="12.2250683"><ele>452.0</ele><time>2026-04-19T08:00:48.778Z</time></trkpt><trkpt lat="42.9149083" lon="12.2251567"><ele>452.75</ele><time>2026-04-19T08:00:49.78Z</time></trkpt><trkpt lat="42.9148017" lon="12.2252183"><ele>453.5</ele><time>2026-04-19T08:00:50.778Z</time></trkpt><trkpt lat="42.9146883" lon="12.2252367"><ele>454.25</ele><time>2026-04-19T08:00:51.778Z</time></trkpt><trkpt lat="42.9145633" lon="12.2252333"><ele>455.0</ele><time>2026-04-19T08:00:52.779Z</time></trkpt><trkpt lat="42.91444" lon="12.2252117"><ele>455.0</ele><time>2026-04-19T08:00:53.778Z</time></trkpt><trkpt lat="42.91433" lon="12.2251733"><ele>455.0</ele><time>2026-04-19T08:00:54.778Z</time></trkpt><trkpt lat="42.9142417" lon="12.2251167"><ele>455.0</ele><time>2026-04-19T08:00:55.782Z</time></trkpt><trkpt lat="42.914165" lon="12.2250817"><ele>455.0</ele><time>2026-04-19T08:00:56.777Z</time></trkpt><trkpt lat="42.914055" lon="12.2250583"><ele>455.0</ele><time>2026-04-19T08:00:58.78Z</time></trkpt><trkpt lat="42.9139967" lon="12.2251667"><ele>454.6</ele><time>2026-04-19T08:01:00.78Z</time></trkpt><trkpt lat="42.9139867" lon="12.2252717"><ele>454.2</ele><time>2026-04-19T08:01:01.78Z</time></trkpt><trkpt lat="42.91396" lon="12.225365"><ele>453.79999999999995</ele><time>2026-04-19T08:01:02.78Z</time></trkpt><trkpt lat="42.9139217" lon="12.2254983"><ele>453.4</ele><time>2026-04-19T08:01:03.781Z</time></trkpt><trkpt lat="42.913885" lon="12.2256783"><ele>453.0</ele><time>2026-04-19T08:01:04.778Z</time></trkpt><trkpt lat="42.913845" lon="12.2258867"><ele>453.0</ele><time>2026-04-19T08:01:05.78Z</time></trkpt><trkpt lat="42.9138117" lon="12.2260517"><ele>452.99999999999994</ele><time>2026-04-19T08:01:06.78Z</time></trkpt><trkpt lat="42.913775" lon="12.2261933"><ele>452.99999999999994</ele><time>2026-04-19T08:01:07.782Z</time></trkpt><trkpt lat="42.913725" lon="12.22631"><ele>453.0</ele><time>2026-04-19T08:01:08.78Z</time></trkpt><trkpt lat="42.9136567" lon="12.2264117"><ele>453.0</ele><time>2026-04-19T08:01:09.78Z</time></trkpt><trkpt lat="42.9135733" lon="12.2265183"><ele>451.1666666666667</ele><time>2026-04-19T08:01:10.78Z</time></trkpt><trkpt lat="42.913515" lon="12.226605"><ele>449.33333333333337</ele><time>2026-04-19T08:01:11.779Z</time></trkpt><trkpt lat="42.9134733" lon="12.2266917"><ele>447.5</ele><time>2026-04-19T08:01:12.784Z</time></trkpt><trkpt lat="42.9134467" lon="12.2268017"><ele>445.6666666666667</ele><time>2026-04-19T08:01:13.782Z</time></trkpt><trkpt lat="42.9134667" lon="12.22689"><ele>443.83333333333337</ele><time>2026-04-19T08:01:14.779Z</time></trkpt><trkpt lat="42.9134883" lon="12.2270283"><ele>442.0</ele><time>2026-04-19T08:01:16.778Z</time></trkpt><trkpt lat="42.9134917" lon="12.2271917"><ele>442.0</ele><time>2026-04-19T08:01:18.779Z</time></trkpt><trkpt lat="42.9134833" lon="12.2273067"><ele>442.00000000000006</ele><time>2026-04-19T08:01:19.778Z</time></trkpt><trkpt lat="42.9134933" lon="12.22741"><ele>442.00000000000006</ele><time>2026-04-19T08:01:20.78Z</time></trkpt><trkpt lat="42.9135217" lon="12.2275467"><ele>442.0</ele><time>2026-04-19T08:01:21.778Z</time></trkpt><trkpt lat="42.9135733" lon="12.227705"><ele>442.0</ele><time>2026-04-19T08:01:22.782Z</time></trkpt><trkpt lat="42.913645" lon="12.227815"><ele>443.8</ele><time>2026-04-19T08:01:23.779Z</time></trkpt><trkpt lat="42.9137233" lon="12.2279067"><ele>445.6</ele><time>2026-04-19T08:01:24.782Z</time></trkpt><trkpt lat="42.9137867" lon="12.2279833"><ele>447.40000000000003</ele><time>2026-04-19T08:01:25.781Z</time></trkpt><trkpt lat="42.9138617" lon="12.2280683"><ele>449.20000000000005</ele><time>2026-04-19T08:01:26.781Z</time></trkpt><trkpt lat="42.91393" lon="12.22816"><ele>451.0</ele><time>2026-04-19T08:01:27.783Z</time></trkpt><trkpt lat="42.9139917" lon="12.228275"><ele>454.4</ele><time>2026-04-19T08:01:28.781Z</time></trkpt><trkpt lat="42.9140533" lon="12.2283967"><ele>457.8</ele><time>2026-04-19T08:01:29.779Z</time></trkpt><trkpt lat="42.9141" lon="12.22851"><ele>461.19999999999993</ele><time>2026-04-19T08:01:30.782Z</time></trkpt><trkpt lat="42.9141233" lon="12.228615"><ele>464.59999999999997</ele><time>2026-04-19T08:01:31.781Z</time></trkpt><trkpt lat="42.914145" lon="12.2287167"><ele>468.0</ele><time>2026-04-19T08:01:32.784Z</time></trkpt><trkpt lat="42.9141267" lon="12.2288633"><ele>468.0</ele><time>2026-04-19T08:01:34.78Z</time></trkpt><trkpt lat="42.914055" lon="12.2289183"><ele>467.99999999999994</ele><time>2026-04-19T08:01:36.785Z</time></trkpt><trkpt lat="42.9139383" lon="12.228905"><ele>467.99999999999994</ele><time>2026-04-19T08:01:37.779Z</time></trkpt><trkpt lat="42.9138417" lon="12.2289317"><ele>468.0</ele><time>2026-04-19T08:01:38.784Z</time></trkpt><trkpt lat="42.913725" lon="12.229"><ele>468.0</ele><time>2026-04-19T08:01:39.779Z</time></trkpt><trkpt lat="42.91363" lon="12.2291133"><ele>468.4</ele><time>2026-04-19T08:01:40.78Z</time></trkpt><trkpt lat="42.9135433" lon="12.2291917"><ele>468.79999999999995</ele><time>2026-04-19T08:01:41.782Z</time></trkpt><trkpt lat="42.91346" lon="12.2292383"><ele>469.2</ele><time>2026-04-19T08:01:42.778Z</time></trkpt><trkpt lat="42.9133483" lon="12.22926"><ele>469.6</ele><time>2026-04-19T08:01:43.78Z</time></trkpt><trkpt lat="42.9132267" lon="12.2292767"><ele>470.0</ele><time>2026-04-19T08:01:44.778Z</time></trkpt><trkpt lat="42.9131133" lon="12.2293067"><ele>475.5</ele><time>2026-04-19T08:01:45.781Z</time></trkpt><trkpt lat="42.9130015" lon="12.2293458"><ele>481.0</ele><time>2026-04-19T08:01:46.779Z</time></trkpt><trkpt lat="42.9128885" lon="12.229387"><ele>486.5</ele><time>2026-04-19T08:01:47.779Z</time></trkpt><trkpt lat="42.9127736" lon="12.2294275"><ele>492.0</ele><time>2026-04-19T08:01:48.78Z</time></trkpt><trkpt lat="42.9126584" lon="12.2294686"><ele>495.8</ele><time>2026-04-19T08:01:49.779Z</time></trkpt><trkpt lat="42.9125507" lon="12.2295073"><ele>499.6</ele><time>2026-04-19T08:01:50.778Z</time></trkpt><trkpt lat="42.9124517" lon="12.2295493"><ele>503.40000000000003</ele><time>2026-04-19T08:01:51.778Z</time></trkpt><trkpt lat="42.9123789" lon="12.2295861"><ele>507.20000000000005</ele><time>2026-04-19T08:01:52.781Z</time></trkpt><trkpt lat="42.9123098" lon="12.2296283"><ele>511.0</ele><time>2026-04-19T08:01:53.781Z</time></trkpt><trkpt lat="42.9122357" lon="12.2296757"><ele>511.00000000000006</ele><time>2026-04-19T08:01:54.779Z</time></trkpt><trkpt lat="42.912153" lon="12.2297225"><ele>511.0</ele><time>2026-04-19T08:01:55.78Z</time></trkpt><trkpt lat="42.9120758" lon="12.2297663"><ele>511.0</ele><time>2026-04-19T08:01:56.78Z</time></trkpt><trkpt lat="42.9120109" lon="12.2298124"><ele>511.0</ele><time>2026-04-19T08:01:57.784Z</time></trkpt><trkpt lat="42.9119504" lon="12.2298545"><ele>511.00000000000006</ele><time>2026-04-19T08:01:58.781Z</time></trkpt><trkpt lat="42.9118754" lon="12.2299125"><ele>511.0</ele><time>2026-04-19T08:02:00.779Z</time></trkpt><trkpt lat="42.9118546" lon="12.2299938"><ele>510.1666666666667</ele><time>2026-04-19T08:02:42.781Z</time></trkpt><trkpt lat="42.9119055" lon="12.2300463"><ele>509.33333333333337</ele><time>2026-04-19T08:04:39.86Z</time></trkpt><trkpt lat="42.9119476" lon="12.2302178"><ele>508.5</ele><time>2026-04-19T08:08:29.847Z</time></trkpt><trkpt lat="42.9119827" lon="12.2303085"><ele>507.66666666666663</ele><time>2026-04-19T08:08:30.779Z</time></trkpt><trkpt lat="42.9120174" lon="12.2303865"><ele>506.8333333333333</ele><time>2026-04-19T08:08:31.779Z</time></trkpt><trkpt lat="42.9120474" lon="12.2304665"><ele>506.0</ele><time>2026-04-19T08:08:32.779Z</time></trkpt><trkpt lat="42.9120919" lon="12.2306038"><ele>506.4</ele><time>2026-04-19T08:08:34.78Z</time></trkpt><trkpt lat="42.9121542" lon="12.2306989"><ele>506.8</ele><time>2026-04-19T08:08:36.779Z</time></trkpt><trkpt lat="42.9122506" lon="12.2307244"><ele>507.19999999999993</ele><time>2026-04-19T08:08:38.779Z</time></trkpt><trkpt lat="42.9123466" lon="12.2306969"><ele>507.59999999999997</ele><time>2026-04-19T08:08:40.779Z</time></trkpt><trkpt lat="42.9124347" lon="12.2306728"><ele>508.0</ele><time>2026-04-19T08:08:42.779Z</time></trkpt><trkpt lat="42.9125346" lon="12.2307201"><ele>503.79999999999995</ele><time>2026-04-19T08:08:44.78Z</time></trkpt><trkpt lat="42.9126314" lon="12.230841"><ele>499.59999999999997</ele><time>2026-04-19T08:08:46.778Z</time></trkpt><trkpt lat="42.9126819" lon="12.2309231"><ele>495.40000000000003</ele><time>2026-04-19T08:08:47.781Z</time></trkpt><trkpt lat="42.9127319" lon="12.2310233"><ele>491.20000000000005</ele><time>2026-04-19T08:08:48.781Z</time></trkpt><trkpt lat="42.9127881" lon="12.2311267"><ele>487.0</ele><time>2026-04-19T08:08:49.779Z</time></trkpt><trkpt lat="42.912845" lon="12.2312083"><ele>487.0</ele><time>2026-04-19T08:08:50.778Z</time></trkpt><trkpt lat="42.9129067" lon="12.2312483"><ele>487.00000000000006</ele><time>2026-04-19T08:08:51.78Z</time></trkpt><trkpt lat="42.91303" lon="12.2312567"><ele>487.00000000000006</ele><time>2026-04-19T08:08:53.778Z</time></trkpt><trkpt lat="42.9131433" lon="12.23125"><ele>487.0</ele><time>2026-04-19T08:08:55.779Z</time></trkpt><trkpt lat="42.9132217" lon="12.2313317"><ele>487.0</ele><time>2026-04-19T08:08:57.78Z</time></trkpt><trkpt lat="42.9132533" lon="12.2314183"><ele>489.40000000000003</ele><time>2026-04-19T08:08:58.782Z</time></trkpt><trkpt lat="42.9132917" lon="12.2315183"><ele>491.80000000000007</ele><time>2026-04-19T08:08:59.778Z</time></trkpt><trkpt lat="42.9133467" lon="12.2316133"><ele>494.2</ele><time>2026-04-19T08:09:00.778Z</time></trkpt><trkpt lat="42.91343" lon="12.2317"><ele>496.6</ele><time>2026-04-19T08:09:01.778Z</time></trkpt><trkpt lat="42.913515" lon="12.2317783"><ele>499.0</ele><time>2026-04-19T08:09:02.779Z</time></trkpt><trkpt lat="42.9135983" lon="12.231855"><ele>494.6666666666667</ele><time>2026-04-19T08:09:03.78Z</time></trkpt><trkpt lat="42.91367" lon="12.2319383"><ele>490.33333333333337</ele><time>2026-04-19T08:09:04.779Z</time></trkpt><trkpt lat="42.9137333" lon="12.2320267"><ele>486.0</ele><time>2026-04-19T08:09:05.779Z</time></trkpt><trkpt lat="42.9137883" lon="12.2321183"><ele>481.66666666666663</ele><time>2026-04-19T08:09:06.781Z</time></trkpt><trkpt lat="42.913825" lon="12.2322167"><ele>477.3333333333333</ele><time>2026-04-19T08:09:07.78Z</time></trkpt><trkpt lat="42.91385" lon="12.2323017"><ele>473.0</ele><time>2026-04-19T08:09:08.782Z</time></trkpt><trkpt lat="42.9138883" lon="12.232435"><ele>473.0</ele><time>2026-04-19T08:09:10.78Z</time></trkpt><trkpt lat="42.9139567" lon="12.2324283"><ele>472.99999999999994</ele><time>2026-04-19T08:09:13.782Z</time></trkpt><trkpt lat="42.9139633" lon="12.2322567"><ele>472.99999999999994</ele><time>2026-04-19T08:09:15.779Z</time></trkpt><trkpt lat="42.9139483" lon="12.2321333"><ele>473.0</ele><time>2026-04-19T08:09:16.779Z</time></trkpt><trkpt lat="42.9139217" lon="12.232"><ele>473.0</ele><time>2026-04-19T08:09:17.78Z</time></trkpt><trkpt lat="42.9138933" lon="12.231875"><ele>472.16666666666663</ele><time>2026-04-19T08:09:18.779Z</time></trkpt><trkpt lat="42.9138633" lon="12.2317583"><ele>471.3333333333333</ele><time>2026-04-19T08:09:19.779Z</time></trkpt><trkpt lat="42.9138333" lon="12.23165"><ele>470.5</ele><time>2026-04-19T08:09:20.78Z</time></trkpt><trkpt lat="42.9137933" lon="12.231555"><ele>469.66666666666663</ele><time>2026-04-19T08:09:21.779Z</time></trkpt><trkpt lat="42.9137567" lon="12.23147"><ele>468.8333333333333</ele><time>2026-04-19T08:09:22.779Z</time></trkpt><trkpt lat="42.9137467" lon="12.2313083"><ele>468.0</ele><time>2026-04-19T08:09:24.787Z</time></trkpt><trkpt lat="42.9138117" lon="12.2311533"><ele>466.4</ele><time>2026-04-19T08:09:26.782Z</time></trkpt><trkpt lat="42.9138567" lon="12.23108"><ele>464.79999999999995</ele><time>2026-04-19T08:09:27.779Z</time></trkpt><trkpt lat="42.913895" lon="12.23094"><ele>463.2</ele><time>2026-04-19T08:09:29.778Z</time></trkpt><trkpt lat="42.913845" lon="12.2307933"><ele>461.6</ele><time>2026-04-19T08:09:31.782Z</time></trkpt><trkpt lat="42.9138317" lon="12.2306383"><ele>460.0</ele><time>2026-04-19T08:09:33.778Z</time></trkpt><trkpt lat="42.913915" lon="12.23061"><ele>460.0</ele><time>2026-04-19T08:09:35.779Z</time></trkpt><trkpt lat="42.9139767" lon="12.23064"><ele>460.0</ele><time>2026-04-19T08:09:36.783Z</time></trkpt><trkpt lat="42.9140583" lon="12.23072"><ele>460.0</ele><time>2026-04-19T08:09:37.781Z</time></trkpt><trkpt lat="42.9141317" lon="12.2308267"><ele>460.0</ele><time>2026-04-19T08:09:38.778Z</time></trkpt><trkpt lat="42.9141967" lon="12.230985"><ele>460.0</ele><time>2026-04-19T08:09:39.778Z</time></trkpt><trkpt lat="42.9142683" lon="12.231155"><ele>452.75</ele><time>2026-04-19T08:09:40.78Z</time></trkpt><trkpt lat="42.91434" lon="12.231325"><ele>445.5</ele><time>2026-04-19T08:09:41.779Z</time></trkpt><trkpt lat="42.9144033" lon="12.2314917"><ele>438.25</ele><time>2026-04-19T08:09:42.778Z</time></trkpt><trkpt lat="42.9144583" lon="12.2316567"><ele>431.0</ele><time>2026-04-19T08:09:43.777Z</time></trkpt><trkpt lat="42.9145" lon="12.23181"><ele>430.75</ele><time>2026-04-19T08:09:44.777Z</time></trkpt><trkpt lat="42.914555" lon="12.2319467"><ele>430.5</ele><time>2026-04-19T08:09:45.779Z</time></trkpt><trkpt lat="42.9146267" lon="12.2320817"><ele>430.25</ele><time>2026-04-19T08:09:46.785Z</time></trkpt><trkpt lat="42.914705" lon="12.232205"><ele>430.0</ele><time>2026-04-19T08:09:47.778Z</time></trkpt><trkpt lat="42.9147783" lon="12.2323133"><ele>430.8</ele><time>2026-04-19T08:09:48.78Z</time></trkpt><trkpt lat="42.91483" lon="12.2324133"><ele>431.6</ele><time>2026-04-19T08:09:49.779Z</time></trkpt><trkpt lat="42.91487" lon="12.23253"><ele>432.4</ele><time>2026-04-19T08:09:50.78Z</time></trkpt><trkpt lat="42.9149" lon="12.232665"><ele>433.2</ele><time>2026-04-19T08:09:51.78Z</time></trkpt><trkpt lat="42.9149133" lon="12.2328333"><ele>434.0</ele><time>2026-04-19T08:09:52.778Z</time></trkpt><trkpt lat="42.9149167" lon="12.233005"><ele>433.75</ele><time>2026-04-19T08:09:53.779Z</time></trkpt><trkpt lat="42.9149183" lon="12.2331633"><ele>433.5</ele><time>2026-04-19T08:09:54.778Z</time></trkpt><trkpt lat="42.9149383" lon="12.2333183"><ele>433.25</ele><time>2026-04-19T08:09:55.783Z</time></trkpt><trkpt lat="42.9149617" lon="12.2334717"><ele>433.0</ele><time>2026-04-19T08:09:56.78Z</time></trkpt><trkpt lat="42.914985" lon="12.2336233"><ele>433.0</ele><time>2026-04-19T08:09:57.783Z</time></trkpt><trkpt lat="42.9150033" lon="12.2337767"><ele>432.99999999999994</ele><time>2026-04-19T08:09:58.777Z</time></trkpt><trkpt lat="42.9150267" lon="12.23392"><ele>432.99999999999994</ele><time>2026-04-19T08:09:59.778Z</time></trkpt><trkpt lat="42.915045" lon="12.2340483"><ele>433.0</ele><time>2026-04-19T08:10:00.779Z</time></trkpt><trkpt lat="42.9150717" lon="12.23416"><ele>433.0</ele><time>2026-04-19T08:10:01.778Z</time></trkpt><trkpt lat="42.9151167" lon="12.23426"><ele>428.33333333333337</ele><time>2026-04-19T08:10:02.782Z</time></trkpt><trkpt lat="42.9151733" lon="12.2343533"><ele>423.6666666666667</ele><time>2026-04-19T08:10:03.777Z</time></trkpt><trkpt lat="42.9152433" lon="12.2344317"><ele>419.0</ele><time>2026-04-19T08:10:04.777Z</time></trkpt><trkpt lat="42.9153267" lon="12.2344867"><ele>414.33333333333337</ele><time>2026-04-19T08:10:05.778Z</time></trkpt><trkpt lat="42.915405" lon="12.2345383"><ele>409.6666666666667</ele><time>2026-04-19T08:10:06.778Z</time></trkpt><trkpt lat="42.9154717" lon="12.23459"><ele>405.0</ele><time>2026-04-19T08:10:07.781Z</time></trkpt><trkpt lat="42.91552" lon="12.2346467"><ele>405.0</ele><time>2026-04-19T08:10:08.779Z</time></trkpt><trkpt lat="42.9155683" lon="12.234795"><ele>405.0</ele><time>2026-04-19T08:10:10.779Z</time></trkpt><trkpt lat="42.9155483" lon="12.23489"><ele>405.0</ele><time>2026-04-19T08:10:11.78Z</time></trkpt><trkpt lat="42.9155017" lon="12.2349817"><ele>405.0</ele><time>2026-04-19T08:10:12.78Z</time></trkpt><trkpt lat="42.9154517" lon="12.2350533"><ele>405.0</ele><time>2026-04-19T08:10:13.779Z</time></trkpt><trkpt lat="42.915375" lon="12.2351583"><ele>403.6</ele><time>2026-04-19T08:10:14.785Z</time></trkpt><trkpt lat="42.9152967" lon="12.2352583"><ele>402.2</ele><time>2026-04-19T08:10:15.779Z</time></trkpt><trkpt lat="42.915235" lon="12.2353417"><ele>400.79999999999995</ele><time>2026-04-19T08:10:16.78Z</time></trkpt><trkpt lat="42.915185" lon="12.23543"><ele>399.4</ele><time>2026-04-19T08:10:17.78Z</time></trkpt><trkpt lat="42.9151733" lon="12.23552"><ele>398.0</ele><time>2026-04-19T08:10:18.781Z</time></trkpt><trkpt lat="42.9152083" lon="12.23568"><ele>398.0</ele><time>2026-04-19T08:10:20.78Z</time></trkpt><trkpt lat="42.9152667" lon="12.2357533"><ele>398.0</ele><time>2026-04-19T08:10:22.779Z</time></trkpt><trkpt lat="42.9153917" lon="12.2357033"><ele>398.0</ele><time>2026-04-19T08:10:24.778Z</time></trkpt><trkpt lat="42.9155033" lon="12.23565"><ele>398.0</ele><time>2026-04-19T08:10:25.778Z</time></trkpt><trkpt lat="42.9156333" lon="12.2355917"><ele>398.0</ele><time>2026-04-19T08:10:26.782Z</time></trkpt><trkpt lat="42.915725" lon="12.2355717"><ele>398.0</ele><time>2026-04-19T08:10:27.779Z</time></trkpt><trkpt lat="42.9158117" lon="12.2355217"><ele>398.0</ele><time>2026-04-19T08:10:28.777Z</time></trkpt><trkpt lat="42.9158867" lon="12.2354417"><ele>398.0</ele><time>2026-04-19T08:10:29.778Z</time></trkpt><trkpt lat="42.915955" lon="12.235335"><ele>398.0</ele><time>2026-04-19T08:10:30.777Z</time></trkpt><trkpt lat="42.9160283" lon="12.2352333"><ele>393.0</ele><time>2026-04-19T08:10:31.78Z</time></trkpt><trkpt lat="42.9161033" lon="12.235135"><ele>388.0</ele><time>2026-04-19T08:10:32.777Z</time></trkpt><trkpt lat="42.9161783" lon="12.2350367"><ele>383.0</ele><time>2026-04-19T08:10:33.784Z</time></trkpt><trkpt lat="42.916245" lon="12.234935"><ele>378.0</ele><time>2026-04-19T08:10:34.782Z</time></trkpt><trkpt lat="42.916305" lon="12.234835"><ele>373.0</ele><time>2026-04-19T08:10:35.781Z</time></trkpt><trkpt lat="42.9163533" lon="12.23471"><ele>372.75</ele><time>2026-04-19T08:10:36.78Z</time></trkpt><trkpt lat="42.9164" lon="12.2345583"><ele>372.5</ele><time>2026-04-19T08:10:37.781Z</time></trkpt><trkpt lat="42.9164433" lon="12.2344083"><ele>372.25</ele><time>2026-04-19T08:10:38.78Z</time></trkpt><trkpt lat="42.9164817" lon="12.2342633"><ele>372.0</ele><time>2026-04-19T08:10:39.778Z</time></trkpt><trkpt lat="42.9165083" lon="12.23413"><ele>372.0</ele><time>2026-04-19T08:10:40.778Z</time></trkpt><trkpt lat="42.916525" lon="12.2340067"><ele>372.0</ele><time>2026-04-19T08:10:41.779Z</time></trkpt><trkpt lat="42.9165433" lon="12.2339033"><ele>372.0</ele><time>2026-04-19T08:10:42.784Z</time></trkpt><trkpt lat="42.9165733" lon="12.233815"><ele>372.0</ele><time>2026-04-19T08:10:44.778Z</time></trkpt><trkpt lat="42.9166267" lon="12.2339033"><ele>372.0</ele><time>2026-04-19T08:10:47.784Z</time></trkpt><trkpt lat="42.9166783" lon="12.23401"><ele>372.0</ele><time>2026-04-19T08:10:48.779Z</time></trkpt><trkpt lat="42.9167133" lon="12.2340833"><ele>368.20000000000005</ele><time>2026-04-19T08:10:49.78Z</time></trkpt><trkpt lat="42.91678" lon="12.2341233"><ele>364.4</ele><time>2026-04-19T08:10:51.783Z</time></trkpt><trkpt lat="42.9168433" lon="12.23399"><ele>360.6</ele><time>2026-04-19T08:10:53.779Z</time></trkpt><trkpt lat="42.9168533" lon="12.23389"><ele>356.79999999999995</ele><time>2026-04-19T08:10:54.777Z</time></trkpt><trkpt lat="42.9168817" lon="12.2337283"><ele>353.0</ele><time>2026-04-19T08:10:55.78Z</time></trkpt><trkpt lat="42.9168867" lon="12.2336383"><ele>353.0</ele><time>2026-04-19T08:10:56.779Z</time></trkpt><trkpt lat="42.9168917" lon="12.2335183"><ele>353.0</ele><time>2026-04-19T08:10:58.872Z</time></trkpt></trkseg><trkseg><trkpt lat="42.9169" lon="12.233475"><ele>353.0</ele><time>2026-04-19T08:25:22.801Z</time></trkpt><trkpt lat="42.9167967" lon="12.2334617"><ele>353.0</ele><time>2026-04-19T08:26:44.607Z</time></trkpt><trkpt lat="42.9259383" lon="12.2348509"><ele>440.0</ele><time>2026-04-19T08:38:40.712Z</time></trkpt><trkpt lat="42.9270623" lon="12.2340186"><ele>436.0</ele><time>2026-04-19T08:40:12.216Z</time></trkpt><trkpt lat="42.9280329" lon="12.2337727"><ele>435.5</ele><time>2026-04-19T08:40:19.22Z</time></trkpt><trkpt lat="42.9284721" lon="12.2337786"><ele>435.0</ele><time>2026-04-19T08:40:33.379Z</time></trkpt><trkpt lat="42.9298061" lon="12.2332621"><ele>430.5</ele><time>2026-04-19T08:41:07.44Z</time></trkpt><trkpt lat="42.9299282" lon="12.2331716"><ele>426.0</ele><time>2026-04-19T08:41:20.75Z</time></trkpt><trkpt lat="42.9307146" lon="12.2322999"><ele>503.0</ele><time>2026-04-19T08:41:35.406Z</time></trkpt><trkpt lat="42.7551477" lon="12.0024036"><ele>413.0</ele><time>2026-04-19T09:04:24.35Z</time></trkpt><trkpt lat="42.930674" lon="12.2322568"><ele>428.0</ele><time>2026-04-19T09:27:44.55Z</time></trkpt><trkpt lat="42.9299505" lon="12.233137"><ele>405.0</ele><time>2026-04-19T09:27:52.773Z</time></trkpt><trkpt lat="42.931355" lon="12.2383385"><ele>398.0</ele><time>2026-04-19T09:28:33.522Z</time></trkpt><trkpt lat="42.9310877" lon="12.2391669"><ele>393.0</ele><time>2026-04-19T09:28:39.941Z</time></trkpt><trkpt lat="42.9305219" lon="12.2405033"><ele>374.0</ele><time>2026-04-19T09:28:48.857Z</time></trkpt><trkpt lat="42.9290693" lon="12.2406293"><ele>374.0</ele><time>2026-04-19T09:29:02.868Z</time></trkpt><trkpt lat="42.9284725" lon="12.24111"><ele>373.5</ele><time>2026-04-19T09:29:08.102Z</time></trkpt><trkpt lat="42.9281526" lon="12.2412105"><ele>373.0</ele><time>2026-04-19T09:29:16.953Z</time></trkpt><trkpt lat="42.928451" lon="12.2385223"><ele>367.0</ele><time>2026-04-19T09:29:23.999Z</time></trkpt><trkpt lat="42.9263507" lon="12.2410992"><ele>366.0</ele><time>2026-04-19T09:29:38.136Z</time></trkpt><trkpt lat="42.9256209" lon="12.2408113"><ele>301.0</ele><time>2026-04-19T09:29:45.161Z</time></trkpt><trkpt lat="42.9086037" lon="12.2765612"><ele>292.0</ele><time>2026-04-19T09:44:28.315Z</time></trkpt><trkpt lat="42.9086564" lon="12.2777203"><ele>292.0</ele><time>2026-04-19T09:47:16.823Z</time></trkpt><trkpt lat="42.9087783" lon="12.277535"><ele>292.0</ele><time>2026-04-19T09:49:24.652Z</time></trkpt><trkpt lat="42.908805" lon="12.27762"><ele>292.0</ele><time>2026-04-19T09:49:25.653Z</time></trkpt><trkpt lat="42.908745" lon="12.277685"><ele>292.0</ele><time>2026-04-19T09:49:27.651Z</time></trkpt></trkseg></trk></gpx>